FDX8 KMEM-EHAM
Flight info
| Callsign | FDX8 |
|---|---|
| Flight time | 7h 54m |
| Altitude | 31000 |
| Route | CRSON7 HUMMS DCT PXV DCT KLYNE Q29 JHW DCT SAEZE/N0483F330 DCT MPV DCT TOPPS N635A RIKAL/M083F340 NATS SOVED/N0476F350 DCT NIBOG DCT BELOX L603 LAMSO |
| Aircraft | B77L/H-SDE1E2E3FGHIJ2J3J4J5M1RWXY/LB1D1 |
Departure
| Time | 2026-05-06 00:24 |
|---|---|
| Airport | Memphis International Airport (KMEM) |
Arrival
| Time | 2026-05-06 08:19 |
|---|---|
| Airport | Amsterdam Airport Schiphol (EHAM) |
| Time | Latitude | Longitude | Altitude | Speed | Heading |
|---|---|---|---|---|---|
| 2026-05-05 23:53 | 35.06263 | -89.97435 | 335 ft | 0 kts | 359° |
| 2026-05-06 00:10 | 35.06262 | -89.97435 | 344 ft | 2 kts | 359° |
| 2026-05-06 00:11 | 35.06236 | -89.97434 | 333 ft | 4 kts | 359° |
| 2026-05-06 00:11 | 35.06213 | -89.97433 | 330 ft | 4 kts | 338° |
| 2026-05-06 00:11 | 35.06197 | -89.97414 | 330 ft | 4 kts | 275° |
| 2026-05-06 00:11 | 35.06197 | -89.97385 | 330 ft | 1 kts | 270° |
| 2026-05-06 00:12 | 35.06197 | -89.97379 | 330 ft | 0 kts | 270° |
| 2026-05-06 00:18 | 35.06197 | -89.97408 | 330 ft | 7 kts | 270° |
| 2026-05-06 00:19 | 35.06197 | -89.97472 | 331 ft | 8 kts | 270° |
| 2026-05-06 00:19 | 35.06180 | -89.97529 | 331 ft | 8 kts | 214° |
| 2026-05-06 00:19 | 35.06129 | -89.97542 | 332 ft | 8 kts | 187° |
| 2026-05-06 00:19 | 35.06075 | -89.97542 | 332 ft | 8 kts | 178° |
| 2026-05-06 00:20 | 35.06018 | -89.97539 | 332 ft | 10 kts | 177° |
| 2026-05-06 00:20 | 35.05949 | -89.97521 | 333 ft | 10 kts | 166° |
| 2026-05-06 00:20 | 35.05880 | -89.97500 | 334 ft | 10 kts | 166° |
| 2026-05-06 00:20 | 35.05809 | -89.97486 | 334 ft | 10 kts | 178° |
| 2026-05-06 00:21 | 35.05738 | -89.97487 | 332 ft | 10 kts | 181° |
| 2026-05-06 00:21 | 35.05667 | -89.97488 | 332 ft | 10 kts | 180° |
| 2026-05-06 00:21 | 35.05596 | -89.97489 | 332 ft | 10 kts | 179° |
| 2026-05-06 00:21 | 35.05524 | -89.97492 | 331 ft | 10 kts | 192° |
| 2026-05-06 00:22 | 35.05508 | -89.97499 | 330 ft | 0 kts | 199° |
| 2026-05-06 00:22 | 35.05502 | -89.97501 | 328 ft | 3 kts | 199° |
| 2026-05-06 00:23 | 35.05464 | -89.97537 | 327 ft | 10 kts | 228° |
| 2026-05-06 00:23 | 35.05417 | -89.97604 | 326 ft | 11 kts | 215° |
| 2026-05-06 00:23 | 35.05327 | -89.97616 | 327 ft | 21 kts | 179° |
| 2026-05-06 00:23 | 35.05014 | -89.97610 | 322 ft | 77 kts | 179° |
| 2026-05-06 00:24 | 35.04562 | -89.97601 | 327 ft | 118 kts | 179° |
| 2026-05-06 00:24 | 35.03548 | -89.97582 | 324 ft | 171 kts | 179° |
| 2026-05-06 00:24 | 35.02286 | -89.97548 | 644 ft | 183 kts | 178° |
| 2026-05-06 00:24 | 35.00999 | -89.97488 | 1178 ft | 184 kts | 180° |
| 2026-05-06 00:25 | 34.99805 | -89.97438 | 2059 ft | 165 kts | 182° |
| 2026-05-06 00:25 | 34.98617 | -89.97335 | 2323 ft | 183 kts | 171° |
| 2026-05-06 00:25 | 34.97363 | -89.96742 | 2498 ft | 203 kts | 166° |
| 2026-05-06 00:25 | 34.95999 | -89.96102 | 2732 ft | 221 kts | 165° |
| 2026-05-06 00:26 | 34.94660 | -89.95009 | 3076 ft | 247 kts | 140° |
| 2026-05-06 00:26 | 34.93581 | -89.93284 | 3480 ft | 263 kts | 133° |
| 2026-05-06 00:26 | 34.92588 | -89.91354 | 3887 ft | 279 kts | 116° |
| 2026-05-06 00:26 | 34.92359 | -89.88940 | 4376 ft | 295 kts | 90° |
| 2026-05-06 00:27 | 34.92485 | -89.86416 | 4878 ft | 301 kts | 93° |
| 2026-05-06 00:27 | 34.92668 | -89.83867 | 5393 ft | 308 kts | 74° |
| 2026-05-06 00:27 | 34.93669 | -89.81551 | 5926 ft | 310 kts | 55° |
| 2026-05-06 00:27 | 34.94833 | -89.79328 | 6516 ft | 314 kts | 58° |
| 2026-05-06 00:28 | 34.96042 | -89.77114 | 7034 ft | 314 kts | 44° |
| 2026-05-06 00:28 | 34.97822 | -89.75653 | 7529 ft | 306 kts | 11° |
| 2026-05-06 00:28 | 34.99869 | -89.75259 | 8183 ft | 293 kts | 352° |
| 2026-05-06 00:28 | 35.01904 | -89.75343 | 8808 ft | 293 kts | 350° |
| 2026-05-06 00:29 | 35.03942 | -89.75461 | 9455 ft | 293 kts | 349° |
| 2026-05-06 00:29 | 35.05987 | -89.75575 | 10108 ft | 294 kts | 349° |
| 2026-05-06 00:29 | 35.08035 | -89.75685 | 10500 ft | 305 kts | 349° |
| 2026-05-06 00:29 | 35.10231 | -89.75804 | 10644 ft | 326 kts | 349° |
| 2026-05-06 00:30 | 35.12570 | -89.75929 | 10802 ft | 346 kts | 349° |
| 2026-05-06 00:30 | 35.15047 | -89.76069 | 10994 ft | 365 kts | 350° |
| 2026-05-06 00:30 | 35.17626 | -89.76209 | 11448 ft | 375 kts | 349° |
| 2026-05-06 00:30 | 35.20245 | -89.76344 | 12140 ft | 378 kts | 349° |
| 2026-05-06 00:31 | 35.22882 | -89.76480 | 12946 ft | 379 kts | 349° |
| 2026-05-06 00:31 | 35.25508 | -89.76620 | 13767 ft | 379 kts | 348° |
| 2026-05-06 00:31 | 35.28172 | -89.76767 | 14281 ft | 385 kts | 349° |
| 2026-05-06 00:31 | 35.30899 | -89.76458 | 14604 ft | 412 kts | 7° |
| 2026-05-06 00:32 | 35.33543 | -89.74879 | 15119 ft | 430 kts | 25° |
| 2026-05-06 00:32 | 35.36073 | -89.72879 | 15602 ft | 436 kts | 24° |
| 2026-05-06 00:32 | 35.38666 | -89.70935 | 16182 ft | 438 kts | 23° |
| 2026-05-06 00:32 | 35.41288 | -89.69013 | 16827 ft | 440 kts | 23° |
| 2026-05-06 00:33 | 35.43896 | -89.67111 | 17440 ft | 443 kts | 23° |
| 2026-05-06 00:33 | 35.46557 | -89.65169 | 18002 ft | 447 kts | 23° |
| 2026-05-06 00:33 | 35.49274 | -89.63178 | 18500 ft | 451 kts | 23° |
| 2026-05-06 00:33 | 35.51948 | -89.61213 | 19008 ft | 455 kts | 24° |
| 2026-05-06 00:34 | 35.54678 | -89.59202 | 19490 ft | 458 kts | 24° |
| 2026-05-06 00:34 | 35.57419 | -89.57182 | 19990 ft | 461 kts | 24° |
| 2026-05-06 00:34 | 35.60180 | -89.55146 | 20507 ft | 464 kts | 24° |
| 2026-05-06 00:34 | 35.62947 | -89.53094 | 21020 ft | 467 kts | 25° |
| 2026-05-06 00:35 | 35.65725 | -89.51001 | 21490 ft | 470 kts | 25° |
| 2026-05-06 00:35 | 35.68519 | -89.48895 | 21947 ft | 473 kts | 25° |
| 2026-05-06 00:35 | 35.71341 | -89.46787 | 22396 ft | 476 kts | 24° |
| 2026-05-06 00:35 | 35.74182 | -89.44671 | 22858 ft | 478 kts | 24° |
| 2026-05-06 00:36 | 35.77037 | -89.42545 | 23318 ft | 482 kts | 25° |
| 2026-05-06 00:36 | 35.79921 | -89.40395 | 23667 ft | 485 kts | 25° |
| 2026-05-06 00:36 | 35.82823 | -89.38228 | 24032 ft | 488 kts | 25° |
| 2026-05-06 00:36 | 35.85697 | -89.36076 | 24398 ft | 491 kts | 25° |
| 2026-05-06 00:37 | 35.88627 | -89.33880 | 24768 ft | 493 kts | 25° |
| 2026-05-06 00:37 | 35.91569 | -89.31673 | 25146 ft | 496 kts | 25° |
| 2026-05-06 00:37 | 35.94527 | -89.29452 | 25500 ft | 499 kts | 25° |
| 2026-05-06 00:37 | 35.97498 | -89.27219 | 25863 ft | 502 kts | 25° |
| 2026-05-06 00:38 | 36.00505 | -89.24957 | 26224 ft | 504 kts | 25° |
| 2026-05-06 00:38 | 36.03511 | -89.22694 | 26577 ft | 507 kts | 25° |
| 2026-05-06 00:38 | 36.06528 | -89.20420 | 26980 ft | 508 kts | 25° |
| 2026-05-06 00:38 | 36.09561 | -89.18132 | 27352 ft | 511 kts | 25° |
| 2026-05-06 00:39 | 36.12604 | -89.15835 | 27669 ft | 514 kts | 25° |
| 2026-05-06 00:39 | 36.15634 | -89.13546 | 27987 ft | 517 kts | 25° |
| 2026-05-06 00:39 | 36.18707 | -89.11222 | 28314 ft | 519 kts | 25° |
| 2026-05-06 00:39 | 36.21798 | -89.08882 | 28623 ft | 522 kts | 25° |
| 2026-05-06 00:40 | 36.24901 | -89.06530 | 28950 ft | 524 kts | 25° |
| 2026-05-06 00:40 | 36.28031 | -89.04156 | 29135 ft | 530 kts | 24° |
| 2026-05-06 00:40 | 36.31189 | -89.01759 | 29326 ft | 534 kts | 24° |
| 2026-05-06 00:40 | 36.34366 | -88.99345 | 29641 ft | 535 kts | 24° |
| 2026-05-06 00:41 | 36.37535 | -88.96932 | 30036 ft | 534 kts | 24° |
| 2026-05-06 00:41 | 36.40698 | -88.94527 | 30418 ft | 532 kts | 23° |
| 2026-05-06 00:41 | 36.43851 | -88.92131 | 30784 ft | 531 kts | 23° |
| 2026-05-06 00:42 | 36.50183 | -88.87320 | 30835 ft | 532 kts | 23° |
| 2026-05-06 00:42 | 36.56476 | -88.82520 | 30796 ft | 528 kts | 23° |
| 2026-05-06 00:43 | 36.62729 | -88.77740 | 30812 ft | 526 kts | 23° |
| 2026-05-06 00:43 | 36.68915 | -88.73008 | 30817 ft | 526 kts | 23° |
| 2026-05-06 00:44 | 36.75155 | -88.68226 | 30853 ft | 527 kts | 22° |
| 2026-05-06 00:44 | 36.81429 | -88.63405 | 30820 ft | 528 kts | 22° |
| 2026-05-06 00:45 | 36.87677 | -88.58592 | 30805 ft | 528 kts | 22° |
| 2026-05-06 00:45 | 36.93921 | -88.53774 | 30809 ft | 527 kts | 22° |
| 2026-05-06 00:46 | 37.00133 | -88.48972 | 30837 ft | 527 kts | 22° |
| 2026-05-06 00:46 | 37.06376 | -88.44138 | 30823 ft | 527 kts | 22° |
| 2026-05-06 00:47 | 37.12614 | -88.39296 | 30812 ft | 527 kts | 22° |
| 2026-05-06 00:47 | 37.18855 | -88.34443 | 30814 ft | 527 kts | 22° |
| 2026-05-06 00:48 | 37.25045 | -88.29622 | 30842 ft | 527 kts | 22° |
| 2026-05-06 00:48 | 37.31271 | -88.24763 | 30826 ft | 527 kts | 22° |
| 2026-05-06 00:49 | 37.37512 | -88.19880 | 30823 ft | 528 kts | 22° |
| 2026-05-06 00:49 | 37.43747 | -88.14993 | 30831 ft | 528 kts | 22° |
| 2026-05-06 00:50 | 37.49989 | -88.10092 | 30847 ft | 529 kts | 22° |
| 2026-05-06 00:50 | 37.56186 | -88.05215 | 30847 ft | 529 kts | 22° |
| 2026-05-06 00:51 | 37.62416 | -88.00302 | 30839 ft | 528 kts | 22° |
| 2026-05-06 00:51 | 37.68642 | -87.95382 | 30840 ft | 528 kts | 22° |
| 2026-05-06 00:52 | 37.74886 | -87.90440 | 30855 ft | 529 kts | 22° |
| 2026-05-06 00:52 | 37.81095 | -87.85515 | 30854 ft | 529 kts | 22° |
| 2026-05-06 00:53 | 37.87341 | -87.80550 | 30848 ft | 530 kts | 22° |
| 2026-05-06 00:53 | 37.93336 | -87.74896 | 30869 ft | 544 kts | 33° |
| 2026-05-06 00:54 | 37.98583 | -87.67815 | 30870 ft | 555 kts | 43° |
| 2026-05-06 00:54 | 38.03472 | -87.60305 | 30848 ft | 555 kts | 43° |
| 2026-05-06 00:55 | 38.08389 | -87.52750 | 30866 ft | 553 kts | 43° |
| 2026-05-06 00:55 | 38.13316 | -87.45261 | 30864 ft | 552 kts | 42° |
| 2026-05-06 00:56 | 38.18254 | -87.37786 | 30869 ft | 552 kts | 42° |
| 2026-05-06 00:56 | 38.23185 | -87.30310 | 30863 ft | 552 kts | 42° |
| 2026-05-06 00:57 | 38.28110 | -87.22815 | 30856 ft | 552 kts | 42° |
| 2026-05-06 00:57 | 38.32997 | -87.15356 | 30848 ft | 552 kts | 42° |
| 2026-05-06 00:58 | 38.37907 | -87.07842 | 30845 ft | 551 kts | 42° |
| 2026-05-06 00:58 | 38.42818 | -87.00312 | 30848 ft | 551 kts | 42° |
| 2026-05-06 00:59 | 38.47719 | -86.92779 | 30860 ft | 551 kts | 42° |
| 2026-05-06 00:59 | 38.52614 | -86.85238 | 30854 ft | 551 kts | 43° |
| 2026-05-06 01:00 | 38.57464 | -86.77748 | 30848 ft | 550 kts | 43° |
| 2026-05-06 01:00 | 38.62340 | -86.70199 | 30876 ft | 550 kts | 43° |
| 2026-05-06 01:01 | 38.67211 | -86.62643 | 30851 ft | 550 kts | 43° |
| 2026-05-06 01:01 | 38.72075 | -86.55082 | 30872 ft | 550 kts | 43° |
| 2026-05-06 01:02 | 38.76933 | -86.47508 | 30864 ft | 550 kts | 43° |
| 2026-05-06 01:02 | 38.81749 | -86.39981 | 30855 ft | 549 kts | 43° |
| 2026-05-06 01:03 | 38.86595 | -86.32392 | 30867 ft | 549 kts | 43° |
| 2026-05-06 01:03 | 38.91429 | -86.24804 | 30859 ft | 549 kts | 43° |
| 2026-05-06 01:04 | 38.96265 | -86.17194 | 30836 ft | 549 kts | 43° |
| 2026-05-06 01:04 | 39.01092 | -86.09578 | 30848 ft | 548 kts | 43° |
| 2026-05-06 01:05 | 39.05902 | -86.01972 | 30918 ft | 547 kts | 43° |
| 2026-05-06 01:05 | 39.10708 | -85.94355 | 30877 ft | 548 kts | 43° |
| 2026-05-06 01:06 | 39.15507 | -85.86731 | 30876 ft | 547 kts | 43° |
| 2026-05-06 01:06 | 39.20294 | -85.79107 | 30881 ft | 547 kts | 43° |
| 2026-05-06 01:07 | 39.25056 | -85.71506 | 30877 ft | 548 kts | 43° |
| 2026-05-06 01:07 | 39.29847 | -85.63841 | 30878 ft | 549 kts | 44° |
| 2026-05-06 01:08 | 39.34637 | -85.56155 | 30866 ft | 549 kts | 44° |
| 2026-05-06 01:08 | 39.39427 | -85.48453 | 30858 ft | 549 kts | 44° |
| 2026-05-06 01:09 | 39.44212 | -85.40739 | 30858 ft | 549 kts | 44° |
| 2026-05-06 01:09 | 39.48954 | -85.33075 | 30895 ft | 548 kts | 44° |
| 2026-05-06 01:10 | 39.53722 | -85.25353 | 30863 ft | 548 kts | 44° |
| 2026-05-06 01:10 | 39.57671 | -85.18942 | 30863 ft | 547 kts | 44° |
| 2026-05-06 01:11 | 39.62415 | -85.11223 | 30867 ft | 547 kts | 44° |
| 2026-05-06 01:11 | 39.67147 | -85.03505 | 30859 ft | 546 kts | 45° |
| 2026-05-06 01:12 | 39.71876 | -84.95773 | 30886 ft | 546 kts | 45° |
| 2026-05-06 01:12 | 39.76607 | -84.88019 | 30873 ft | 547 kts | 45° |
| 2026-05-06 01:13 | 39.81326 | -84.80266 | 30869 ft | 547 kts | 45° |
| 2026-05-06 01:13 | 39.86019 | -84.72535 | 30871 ft | 547 kts | 45° |
| 2026-05-06 01:14 | 39.93097 | -84.60839 | 30887 ft | 547 kts | 45° |
| 2026-05-06 01:14 | 39.97801 | -84.53042 | 30859 ft | 547 kts | 45° |
| 2026-05-06 01:15 | 40.02495 | -84.45241 | 30878 ft | 546 kts | 45° |
| 2026-05-06 01:15 | 40.07144 | -84.37497 | 30884 ft | 545 kts | 45° |
| 2026-05-06 01:16 | 40.11819 | -84.29691 | 30899 ft | 545 kts | 45° |
| 2026-05-06 01:16 | 40.16481 | -84.21888 | 30881 ft | 544 kts | 45° |
| 2026-05-06 01:17 | 40.21143 | -84.14063 | 30871 ft | 544 kts | 45° |
| 2026-05-06 01:17 | 40.25762 | -84.06293 | 30875 ft | 543 kts | 46° |
| 2026-05-06 01:18 | 40.30398 | -83.98472 | 30880 ft | 543 kts | 46° |
| 2026-05-06 01:18 | 40.35027 | -83.90648 | 30884 ft | 544 kts | 46° |
| 2026-05-06 01:19 | 40.39660 | -83.82795 | 30883 ft | 543 kts | 47° |
| 2026-05-06 01:19 | 40.44255 | -83.74984 | 30880 ft | 542 kts | 47° |
| 2026-05-06 01:20 | 40.48862 | -83.67133 | 30877 ft | 542 kts | 47° |
| 2026-05-06 01:20 | 40.53458 | -83.59284 | 30876 ft | 542 kts | 47° |
| 2026-05-06 01:21 | 40.58045 | -83.51427 | 30870 ft | 541 kts | 47° |
| 2026-05-06 01:21 | 40.62626 | -83.43562 | 30875 ft | 541 kts | 47° |
| 2026-05-06 01:22 | 40.67206 | -83.35680 | 30884 ft | 544 kts | 47° |
| 2026-05-06 01:22 | 40.71844 | -83.27711 | 31047 ft | 551 kts | 46° |
| 2026-05-06 01:23 | 40.74198 | -83.23718 | 31262 ft | 553 kts | 46° |
| 2026-05-06 01:23 | 40.76567 | -83.19716 | 31570 ft | 552 kts | 45° |
| 2026-05-06 01:23 | 40.78926 | -83.15727 | 31929 ft | 551 kts | 45° |
| 2026-05-06 01:23 | 40.81271 | -83.11750 | 32348 ft | 547 kts | 44° |
| 2026-05-06 01:24 | 40.83575 | -83.07831 | 32735 ft | 545 kts | 44° |
| 2026-05-06 01:24 | 40.85933 | -83.03818 | 32833 ft | 547 kts | 43° |
| 2026-05-06 01:24 | 40.90578 | -82.95894 | 32888 ft | 549 kts | 44° |
| 2026-05-06 01:25 | 40.95247 | -82.87898 | 32884 ft | 548 kts | 44° |
| 2026-05-06 01:25 | 40.99892 | -82.79919 | 32877 ft | 547 kts | 44° |
| 2026-05-06 01:26 | 41.04535 | -82.71929 | 32881 ft | 546 kts | 44° |
| 2026-05-06 01:26 | 41.09163 | -82.63945 | 32873 ft | 546 kts | 44° |
| 2026-05-06 01:27 | 41.13723 | -82.55956 | 32869 ft | 550 kts | 47° |
| 2026-05-06 01:27 | 41.17617 | -82.47093 | 32868 ft | 560 kts | 56° |
| 2026-05-06 01:28 | 41.21217 | -82.37908 | 32882 ft | 561 kts | 56° |
| 2026-05-06 01:28 | 41.24859 | -82.28744 | 32882 ft | 561 kts | 55° |
| 2026-05-06 01:29 | 41.28537 | -82.19601 | 32878 ft | 561 kts | 55° |
| 2026-05-06 01:29 | 41.32213 | -82.10438 | 32875 ft | 562 kts | 55° |
| 2026-05-06 01:30 | 41.35714 | -82.01104 | 32881 ft | 566 kts | 60° |
| 2026-05-06 01:30 | 41.38772 | -81.91431 | 32880 ft | 567 kts | 62° |
| 2026-05-06 01:31 | 41.41786 | -81.81792 | 32859 ft | 567 kts | 62° |
| 2026-05-06 01:31 | 41.44870 | -81.72047 | 32859 ft | 567 kts | 61° |
| 2026-05-06 01:32 | 41.47926 | -81.62412 | 32891 ft | 567 kts | 62° |
| 2026-05-06 01:32 | 41.50990 | -81.52703 | 32894 ft | 568 kts | 62° |
| 2026-05-06 01:33 | 41.54048 | -81.42967 | 32888 ft | 568 kts | 62° |
| 2026-05-06 01:33 | 41.57105 | -81.33221 | 32888 ft | 568 kts | 62° |
| 2026-05-06 01:34 | 41.60135 | -81.23541 | 32872 ft | 567 kts | 62° |
| 2026-05-06 01:34 | 41.63165 | -81.13825 | 32880 ft | 565 kts | 62° |
| 2026-05-06 01:35 | 41.66184 | -81.04107 | 32897 ft | 565 kts | 63° |
| 2026-05-06 01:35 | 41.69171 | -80.94454 | 32873 ft | 564 kts | 63° |
| 2026-05-06 01:36 | 41.72164 | -80.84747 | 32870 ft | 563 kts | 63° |
| 2026-05-06 01:36 | 41.75140 | -80.75058 | 32862 ft | 562 kts | 63° |
| 2026-05-06 01:37 | 41.78108 | -80.65360 | 32854 ft | 562 kts | 63° |
| 2026-05-06 01:37 | 41.81055 | -80.55643 | 32913 ft | 562 kts | 64° |
| 2026-05-06 01:38 | 41.83761 | -80.45794 | 32879 ft | 563 kts | 67° |
| 2026-05-06 01:38 | 41.86350 | -80.35936 | 32886 ft | 562 kts | 67° |
| 2026-05-06 01:39 | 41.88977 | -80.26041 | 32881 ft | 562 kts | 66° |
| 2026-05-06 01:39 | 41.91623 | -80.16173 | 32865 ft | 562 kts | 66° |
| 2026-05-06 01:40 | 41.94249 | -80.06368 | 32884 ft | 560 kts | 66° |
| 2026-05-06 01:40 | 41.96872 | -79.96522 | 32912 ft | 559 kts | 66° |
| 2026-05-06 01:41 | 41.99483 | -79.86670 | 32881 ft | 559 kts | 67° |
| 2026-05-06 01:41 | 42.02085 | -79.76807 | 32871 ft | 558 kts | 68° |
| 2026-05-06 01:42 | 42.04651 | -79.67041 | 32879 ft | 556 kts | 68° |
| 2026-05-06 01:42 | 42.07221 | -79.57225 | 32884 ft | 555 kts | 68° |
| 2026-05-06 01:43 | 42.09776 | -79.47426 | 32886 ft | 554 kts | 68° |
| 2026-05-06 01:43 | 42.12316 | -79.37648 | 32904 ft | 553 kts | 68° |
| 2026-05-06 01:44 | 42.14846 | -79.27864 | 32891 ft | 552 kts | 69° |
| 2026-05-06 01:44 | 42.17365 | -79.18086 | 32888 ft | 552 kts | 69° |
| 2026-05-06 01:45 | 42.20216 | -79.08520 | 32887 ft | 548 kts | 59° |
| 2026-05-06 01:45 | 42.23882 | -78.99548 | 32899 ft | 545 kts | 57° |
| 2026-05-06 01:46 | 42.27585 | -78.90588 | 32896 ft | 546 kts | 58° |
| 2026-05-06 01:46 | 42.31216 | -78.81648 | 32890 ft | 546 kts | 58° |
| 2026-05-06 01:47 | 42.34838 | -78.72619 | 32888 ft | 546 kts | 58° |
| 2026-05-06 01:47 | 42.38448 | -78.63580 | 32888 ft | 546 kts | 59° |
| 2026-05-06 01:48 | 42.42047 | -78.54547 | 32887 ft | 545 kts | 59° |
| 2026-05-06 01:48 | 42.45643 | -78.45504 | 32905 ft | 545 kts | 59° |
| 2026-05-06 01:49 | 42.49235 | -78.36444 | 32893 ft | 546 kts | 59° |
| 2026-05-06 01:49 | 42.52824 | -78.27360 | 32894 ft | 546 kts | 59° |
| 2026-05-06 01:50 | 42.56386 | -78.18317 | 32889 ft | 547 kts | 59° |
| 2026-05-06 01:50 | 42.59966 | -78.09200 | 32895 ft | 547 kts | 59° |
| 2026-05-06 01:51 | 42.63153 | -78.01057 | 32899 ft | 548 kts | 59° |
| 2026-05-06 01:51 | 42.66732 | -77.91888 | 32889 ft | 548 kts | 59° |
| 2026-05-06 01:52 | 42.70296 | -77.82726 | 32894 ft | 548 kts | 59° |
| 2026-05-06 01:52 | 42.73859 | -77.73538 | 32904 ft | 549 kts | 60° |
| 2026-05-06 01:53 | 42.77393 | -77.64395 | 32924 ft | 550 kts | 60° |
| 2026-05-06 01:53 | 42.80948 | -77.55169 | 32901 ft | 550 kts | 60° |
| 2026-05-06 01:54 | 42.84502 | -77.45915 | 32902 ft | 550 kts | 60° |
| 2026-05-06 01:54 | 42.88045 | -77.36661 | 32902 ft | 551 kts | 60° |
| 2026-05-06 01:55 | 42.91587 | -77.27377 | 32918 ft | 550 kts | 60° |
| 2026-05-06 01:55 | 42.95118 | -77.18094 | 32927 ft | 550 kts | 60° |
| 2026-05-06 01:56 | 42.98612 | -77.08874 | 32904 ft | 550 kts | 60° |
| 2026-05-06 01:56 | 43.02118 | -76.99598 | 32910 ft | 549 kts | 60° |
| 2026-05-06 01:57 | 43.05609 | -76.90326 | 32926 ft | 549 kts | 60° |
| 2026-05-06 01:57 | 43.09096 | -76.81039 | 32910 ft | 548 kts | 60° |
| 2026-05-06 01:58 | 43.12580 | -76.71727 | 32911 ft | 548 kts | 60° |
| 2026-05-06 01:58 | 43.16051 | -76.62418 | 32918 ft | 549 kts | 61° |
| 2026-05-06 01:59 | 43.19493 | -76.53158 | 32921 ft | 549 kts | 61° |
| 2026-05-06 01:59 | 43.22951 | -76.43821 | 32940 ft | 549 kts | 61° |
| 2026-05-06 02:00 | 43.26409 | -76.34455 | 32928 ft | 550 kts | 61° |
| 2026-05-06 02:00 | 43.29869 | -76.25052 | 32929 ft | 551 kts | 61° |
| 2026-05-06 02:01 | 43.33126 | -76.15507 | 32913 ft | 554 kts | 68° |
| 2026-05-06 02:01 | 43.35424 | -76.05407 | 32905 ft | 554 kts | 73° |
| 2026-05-06 02:02 | 43.37570 | -75.95310 | 32911 ft | 554 kts | 73° |
| 2026-05-06 02:02 | 43.39765 | -75.85134 | 32899 ft | 555 kts | 73° |
| 2026-05-06 02:03 | 43.41986 | -75.74966 | 32891 ft | 555 kts | 73° |
| 2026-05-06 02:03 | 43.44209 | -75.64791 | 32902 ft | 554 kts | 73° |
| 2026-05-06 02:04 | 43.46415 | -75.54629 | 32903 ft | 554 kts | 73° |
| 2026-05-06 02:04 | 43.48607 | -75.44461 | 32895 ft | 553 kts | 73° |
| 2026-05-06 02:05 | 43.50790 | -75.34285 | 32895 ft | 554 kts | 73° |
| 2026-05-06 02:05 | 43.52952 | -75.24160 | 32896 ft | 554 kts | 73° |
| 2026-05-06 02:06 | 43.55121 | -75.13953 | 32881 ft | 555 kts | 73° |
| 2026-05-06 02:06 | 43.57284 | -75.03728 | 32842 ft | 555 kts | 73° |
| 2026-05-06 02:07 | 43.59436 | -74.93497 | 32856 ft | 555 kts | 73° |
| 2026-05-06 02:07 | 43.61576 | -74.83276 | 32879 ft | 554 kts | 73° |
| 2026-05-06 02:08 | 43.63707 | -74.73048 | 32859 ft | 554 kts | 73° |
| 2026-05-06 02:08 | 43.65827 | -74.62822 | 32848 ft | 553 kts | 73° |
| 2026-05-06 02:09 | 43.67920 | -74.52674 | 32841 ft | 553 kts | 74° |
| 2026-05-06 02:09 | 43.70019 | -74.42447 | 32841 ft | 553 kts | 74° |
| 2026-05-06 02:10 | 43.72108 | -74.32215 | 32832 ft | 552 kts | 74° |
| 2026-05-06 02:10 | 43.74186 | -74.21987 | 32814 ft | 552 kts | 74° |
| 2026-05-06 02:11 | 43.76255 | -74.11751 | 32820 ft | 552 kts | 74° |
| 2026-05-06 02:11 | 43.78313 | -74.01517 | 32822 ft | 552 kts | 74° |
| 2026-05-06 02:12 | 43.80359 | -73.91288 | 32801 ft | 552 kts | 74° |
| 2026-05-06 02:12 | 43.82384 | -73.81116 | 32807 ft | 551 kts | 74° |
| 2026-05-06 02:13 | 43.84414 | -73.70869 | 32805 ft | 552 kts | 75° |
| 2026-05-06 02:13 | 43.86437 | -73.60600 | 32782 ft | 552 kts | 74° |
| 2026-05-06 02:14 | 43.88455 | -73.50302 | 32784 ft | 552 kts | 74° |
| 2026-05-06 02:14 | 43.90455 | -73.40037 | 32784 ft | 552 kts | 74° |
| 2026-05-06 02:15 | 43.92452 | -73.29741 | 32788 ft | 552 kts | 75° |
| 2026-05-06 02:15 | 43.94439 | -73.19441 | 32812 ft | 552 kts | 75° |
| 2026-05-06 02:16 | 43.96405 | -73.09193 | 32793 ft | 553 kts | 75° |
| 2026-05-06 02:16 | 43.98377 | -72.98860 | 32791 ft | 554 kts | 75° |
| 2026-05-06 02:17 | 44.00342 | -72.88501 | 32804 ft | 554 kts | 75° |
| 2026-05-06 02:17 | 44.02297 | -72.78148 | 32843 ft | 554 kts | 75° |
| 2026-05-06 02:18 | 44.04235 | -72.67826 | 32854 ft | 553 kts | 75° |
| 2026-05-06 02:18 | 44.06169 | -72.57463 | 32868 ft | 554 kts | 75° |
| 2026-05-06 02:19 | 44.08107 | -72.47074 | 32864 ft | 555 kts | 73° |
| 2026-05-06 02:19 | 44.10679 | -72.36984 | 32870 ft | 553 kts | 66° |
| 2026-05-06 02:20 | 44.15097 | -72.22201 | 32823 ft | 553 kts | 65° |
| 2026-05-06 02:21 | 44.18008 | -72.12287 | 32788 ft | 553 kts | 66° |
| 2026-05-06 02:21 | 44.20880 | -72.02345 | 32787 ft | 553 kts | 66° |
| 2026-05-06 02:22 | 44.23740 | -71.92381 | 32787 ft | 553 kts | 66° |
| 2026-05-06 02:22 | 44.26593 | -71.82408 | 32784 ft | 553 kts | 66° |
| 2026-05-06 02:23 | 44.29436 | -71.72440 | 32812 ft | 552 kts | 66° |
| 2026-05-06 02:23 | 44.32270 | -71.62472 | 32822 ft | 552 kts | 66° |
| 2026-05-06 02:24 | 44.35093 | -71.52501 | 32822 ft | 551 kts | 66° |
| 2026-05-06 02:24 | 44.37885 | -71.42596 | 32822 ft | 551 kts | 66° |
| 2026-05-06 02:25 | 44.40686 | -71.32620 | 32805 ft | 551 kts | 66° |
| 2026-05-06 02:25 | 44.43009 | -71.24314 | 32828 ft | 551 kts | 66° |
| 2026-05-06 02:26 | 44.45791 | -71.14332 | 32842 ft | 551 kts | 66° |
| 2026-05-06 02:26 | 44.48568 | -71.04330 | 32836 ft | 551 kts | 66° |
| 2026-05-06 02:27 | 44.51343 | -70.94293 | 32817 ft | 551 kts | 66° |
| 2026-05-06 02:27 | 44.54101 | -70.84268 | 32835 ft | 551 kts | 66° |
| 2026-05-06 02:28 | 44.56856 | -70.74218 | 32816 ft | 551 kts | 66° |
| 2026-05-06 02:28 | 44.59598 | -70.64178 | 32813 ft | 551 kts | 66° |
| 2026-05-06 02:29 | 44.62330 | -70.54130 | 32809 ft | 551 kts | 66° |
| 2026-05-06 02:29 | 44.65053 | -70.44072 | 32801 ft | 550 kts | 66° |
| 2026-05-06 02:30 | 44.67748 | -70.34073 | 32814 ft | 550 kts | 66° |
| 2026-05-06 02:30 | 44.70453 | -70.23998 | 32803 ft | 551 kts | 67° |
| 2026-05-06 02:31 | 44.73156 | -70.13890 | 32800 ft | 552 kts | 67° |
| 2026-05-06 02:31 | 44.75855 | -70.03755 | 32810 ft | 552 kts | 67° |
| 2026-05-06 02:32 | 44.78523 | -69.93692 | 32826 ft | 553 kts | 67° |
| 2026-05-06 02:32 | 44.81207 | -69.83520 | 32810 ft | 553 kts | 67° |
| 2026-05-06 02:33 | 44.83867 | -69.73400 | 32808 ft | 552 kts | 67° |
| 2026-05-06 02:33 | 44.84762 | -69.69982 | 32807 ft | 551 kts | 67° |
| 2026-05-06 02:34 | 44.89155 | -69.53146 | 32808 ft | 549 kts | 67° |
| 2026-05-06 02:34 | 44.91783 | -69.43019 | 32809 ft | 548 kts | 67° |
| 2026-05-06 02:35 | 44.94373 | -69.32996 | 32805 ft | 547 kts | 67° |
| 2026-05-06 02:35 | 44.96968 | -69.22908 | 32818 ft | 545 kts | 67° |
| 2026-05-06 02:36 | 44.99547 | -69.12838 | 32821 ft | 545 kts | 67° |
| 2026-05-06 02:36 | 45.02115 | -69.02770 | 32841 ft | 544 kts | 68° |
| 2026-05-06 02:37 | 45.04674 | -68.92694 | 32823 ft | 544 kts | 68° |
| 2026-05-06 02:37 | 45.07224 | -68.82607 | 32814 ft | 544 kts | 68° |
| 2026-05-06 02:38 | 45.09737 | -68.72621 | 32826 ft | 541 kts | 68° |
| 2026-05-06 02:38 | 45.12247 | -68.62603 | 32839 ft | 538 kts | 68° |
| 2026-05-06 02:39 | 45.14739 | -68.52616 | 32860 ft | 536 kts | 68° |
| 2026-05-06 02:39 | 45.17215 | -68.42650 | 32851 ft | 535 kts | 69° |
| 2026-05-06 02:40 | 45.19678 | -68.32693 | 32820 ft | 535 kts | 69° |
| 2026-05-06 02:40 | 45.22122 | -68.22769 | 32848 ft | 532 kts | 69° |
| 2026-05-06 02:41 | 45.24538 | -68.12915 | 32848 ft | 531 kts | 69° |
| 2026-05-06 02:41 | 45.26957 | -68.03007 | 32856 ft | 531 kts | 70° |
| 2026-05-06 02:42 | 45.29365 | -67.93099 | 32855 ft | 531 kts | 70° |
| 2026-05-06 02:42 | 45.31765 | -67.83187 | 32856 ft | 531 kts | 69° |
| 2026-05-06 02:43 | 45.34835 | -67.73710 | 32850 ft | 527 kts | 57° |
| 2026-05-06 02:43 | 45.39104 | -67.65301 | 32860 ft | 523 kts | 46° |
| 2026-05-06 02:44 | 45.43908 | -67.57605 | 32849 ft | 522 kts | 45° |
| 2026-05-06 02:44 | 45.48743 | -67.49865 | 32847 ft | 523 kts | 46° |
| 2026-05-06 02:45 | 45.53545 | -67.42067 | 32849 ft | 523 kts | 46° |
| 2026-05-06 02:45 | 45.58332 | -67.34216 | 32843 ft | 524 kts | 46° |
| 2026-05-06 02:46 | 45.63113 | -67.26344 | 32840 ft | 524 kts | 46° |
| 2026-05-06 02:46 | 45.67857 | -67.18513 | 32844 ft | 525 kts | 46° |
| 2026-05-06 02:47 | 45.72632 | -67.10616 | 32843 ft | 525 kts | 47° |
| 2026-05-06 02:47 | 45.77417 | -67.02681 | 32841 ft | 526 kts | 47° |
| 2026-05-06 02:48 | 45.82201 | -66.94723 | 32826 ft | 526 kts | 47° |
| 2026-05-06 02:48 | 45.86979 | -66.86752 | 32844 ft | 528 kts | 47° |
| 2026-05-06 02:49 | 45.91768 | -66.78740 | 32838 ft | 529 kts | 48° |
| 2026-05-06 02:49 | 45.96562 | -66.70696 | 32836 ft | 530 kts | 48° |
| 2026-05-06 02:50 | 46.01332 | -66.62668 | 32848 ft | 531 kts | 48° |
| 2026-05-06 02:50 | 46.06128 | -66.54574 | 32832 ft | 531 kts | 48° |
| 2026-05-06 02:51 | 46.10926 | -66.46454 | 32832 ft | 531 kts | 48° |
| 2026-05-06 02:51 | 46.15707 | -66.38335 | 32840 ft | 531 kts | 48° |
| 2026-05-06 02:52 | 46.20458 | -66.30246 | 32835 ft | 531 kts | 48° |
| 2026-05-06 02:52 | 46.25229 | -66.22099 | 32835 ft | 531 kts | 48° |
| 2026-05-06 02:53 | 46.29990 | -66.13944 | 32828 ft | 531 kts | 48° |
| 2026-05-06 02:53 | 46.34748 | -66.05773 | 32835 ft | 531 kts | 49° |
| 2026-05-06 02:54 | 46.39513 | -65.97563 | 32832 ft | 531 kts | 49° |
| 2026-05-06 02:54 | 46.44268 | -65.89345 | 32829 ft | 532 kts | 49° |
| 2026-05-06 02:55 | 46.49020 | -65.81110 | 32815 ft | 532 kts | 49° |
| 2026-05-06 02:55 | 46.53767 | -65.72857 | 32831 ft | 533 kts | 50° |
| 2026-05-06 02:56 | 46.58495 | -65.64613 | 32835 ft | 533 kts | 50° |
| 2026-05-06 02:56 | 46.63272 | -65.56260 | 32832 ft | 534 kts | 50° |
| 2026-05-06 02:57 | 46.67996 | -65.47973 | 32816 ft | 535 kts | 50° |
| 2026-05-06 02:57 | 46.72744 | -65.39619 | 32810 ft | 535 kts | 50° |
| 2026-05-06 02:58 | 46.77488 | -65.31246 | 32811 ft | 535 kts | 50° |
| 2026-05-06 02:58 | 46.82227 | -65.22856 | 32815 ft | 536 kts | 50° |
| 2026-05-06 02:59 | 46.86970 | -65.14435 | 32794 ft | 536 kts | 50° |
| 2026-05-06 02:59 | 46.91681 | -65.06045 | 32801 ft | 536 kts | 50° |
| 2026-05-06 03:00 | 46.96408 | -64.97599 | 32812 ft | 537 kts | 50° |
| 2026-05-06 03:00 | 47.01137 | -64.89123 | 32800 ft | 538 kts | 50° |
| 2026-05-06 03:01 | 47.05874 | -64.80608 | 32797 ft | 539 kts | 50° |
| 2026-05-06 03:01 | 47.10606 | -64.72075 | 32793 ft | 539 kts | 50° |
| 2026-05-06 03:02 | 47.15334 | -64.63523 | 32798 ft | 540 kts | 50° |
| 2026-05-06 03:02 | 47.20037 | -64.54987 | 32800 ft | 540 kts | 50° |
| 2026-05-06 03:03 | 47.24766 | -64.46381 | 32803 ft | 540 kts | 50° |
| 2026-05-06 03:03 | 47.29482 | -64.37768 | 32813 ft | 540 kts | 51° |
| 2026-05-06 03:04 | 47.34200 | -64.29127 | 32794 ft | 540 kts | 51° |
| 2026-05-06 03:04 | 47.38899 | -64.20491 | 32784 ft | 540 kts | 51° |
| 2026-05-06 03:05 | 47.43592 | -64.11840 | 32814 ft | 540 kts | 51° |
| 2026-05-06 03:05 | 47.48287 | -64.03157 | 32803 ft | 540 kts | 51° |
| 2026-05-06 03:06 | 47.52945 | -63.94517 | 32798 ft | 540 kts | 51° |
| 2026-05-06 03:06 | 47.57631 | -63.85795 | 32791 ft | 541 kts | 51° |
| 2026-05-06 03:07 | 47.62306 | -63.77067 | 32787 ft | 541 kts | 51° |
| 2026-05-06 03:07 | 47.66988 | -63.68299 | 32782 ft | 541 kts | 51° |
| 2026-05-06 03:08 | 47.71627 | -63.59580 | 32784 ft | 541 kts | 51° |
| 2026-05-06 03:08 | 47.76294 | -63.50783 | 32787 ft | 541 kts | 51° |
| 2026-05-06 03:09 | 47.80958 | -63.41963 | 32782 ft | 542 kts | 51° |
| 2026-05-06 03:09 | 47.85610 | -63.33136 | 32784 ft | 542 kts | 51° |
| 2026-05-06 03:10 | 47.89470 | -63.25789 | 32778 ft | 542 kts | 51° |
| 2026-05-06 03:10 | 47.94865 | -63.15490 | 32776 ft | 542 kts | 51° |
| 2026-05-06 03:11 | 47.99505 | -63.06598 | 32776 ft | 542 kts | 51° |
| 2026-05-06 03:11 | 48.03353 | -62.99204 | 32786 ft | 542 kts | 51° |
| 2026-05-06 03:12 | 48.07980 | -62.90285 | 32792 ft | 542 kts | 51° |
| 2026-05-06 03:13 | 48.17669 | -62.71513 | 32784 ft | 542 kts | 51° |
| 2026-05-06 03:13 | 48.22267 | -62.62559 | 32788 ft | 542 kts | 51° |
| 2026-05-06 03:14 | 48.26856 | -62.53593 | 32794 ft | 542 kts | 51° |
| 2026-05-06 03:14 | 48.31413 | -62.44661 | 32787 ft | 541 kts | 51° |
| 2026-05-06 03:15 | 48.35983 | -62.35671 | 32789 ft | 541 kts | 51° |
| 2026-05-06 03:15 | 48.40547 | -62.26665 | 32797 ft | 541 kts | 51° |
| 2026-05-06 03:16 | 48.45114 | -62.17623 | 32782 ft | 542 kts | 51° |
| 2026-05-06 03:16 | 48.49675 | -62.08563 | 32793 ft | 543 kts | 51° |
| 2026-05-06 03:17 | 48.54220 | -61.99503 | 32818 ft | 544 kts | 51° |
| 2026-05-06 03:17 | 48.58793 | -61.90358 | 32792 ft | 546 kts | 51° |
| 2026-05-06 03:18 | 48.63360 | -61.81193 | 32786 ft | 546 kts | 51° |
| 2026-05-06 03:18 | 48.67921 | -61.72007 | 32791 ft | 546 kts | 51° |
| 2026-05-06 03:19 | 48.72475 | -61.62805 | 32798 ft | 545 kts | 51° |
| 2026-05-06 03:19 | 48.76983 | -61.53666 | 32788 ft | 544 kts | 52° |
| 2026-05-06 03:20 | 48.83758 | -61.39870 | 32781 ft | 543 kts | 52° |
| 2026-05-06 03:20 | 48.88259 | -61.30667 | 32794 ft | 542 kts | 52° |
| 2026-05-06 03:21 | 48.92748 | -61.21457 | 32788 ft | 542 kts | 52° |
| 2026-05-06 03:21 | 48.97230 | -61.12228 | 32774 ft | 542 kts | 51° |
| 2026-05-06 03:22 | 49.01702 | -61.02989 | 32778 ft | 542 kts | 51° |
| 2026-05-06 03:22 | 49.06147 | -60.93774 | 32799 ft | 542 kts | 51° |
| 2026-05-06 03:23 | 49.10610 | -60.84490 | 32799 ft | 543 kts | 51° |
| 2026-05-06 03:23 | 49.15076 | -60.75167 | 32797 ft | 543 kts | 51° |
| 2026-05-06 03:24 | 49.19532 | -60.65831 | 32806 ft | 544 kts | 51° |
| 2026-05-06 03:24 | 49.23988 | -60.56464 | 32804 ft | 544 kts | 51° |
| 2026-05-06 03:25 | 49.28412 | -60.47133 | 32795 ft | 545 kts | 52° |
| 2026-05-06 03:25 | 49.32858 | -60.37721 | 32794 ft | 545 kts | 52° |
| 2026-05-06 03:26 | 49.37307 | -60.28268 | 32802 ft | 546 kts | 52° |
| 2026-05-06 03:26 | 49.41747 | -60.18803 | 32792 ft | 546 kts | 52° |
| 2026-05-06 03:27 | 49.46184 | -60.09309 | 32796 ft | 546 kts | 52° |
| 2026-05-06 03:27 | 49.50576 | -59.99878 | 32806 ft | 545 kts | 51° |
| 2026-05-06 03:28 | 49.54981 | -59.90385 | 32792 ft | 544 kts | 51° |
| 2026-05-06 03:28 | 49.59371 | -59.80891 | 32789 ft | 543 kts | 52° |
| 2026-05-06 03:29 | 49.63744 | -59.71401 | 32809 ft | 542 kts | 52° |
| 2026-05-06 03:29 | 49.68108 | -59.61896 | 32800 ft | 542 kts | 52° |
| 2026-05-06 03:30 | 49.72468 | -59.52367 | 32805 ft | 542 kts | 52° |
| 2026-05-06 03:30 | 49.76790 | -59.42885 | 32809 ft | 542 kts | 52° |
| 2026-05-06 03:31 | 49.81129 | -59.33332 | 32819 ft | 542 kts | 52° |
| 2026-05-06 03:31 | 49.84725 | -59.25389 | 32805 ft | 542 kts | 52° |
| 2026-05-06 03:32 | 49.89047 | -59.15811 | 32800 ft | 543 kts | 52° |
| 2026-05-06 03:32 | 49.93369 | -59.06199 | 32809 ft | 543 kts | 52° |
| 2026-05-06 03:33 | 49.97684 | -58.96566 | 32824 ft | 543 kts | 52° |
| 2026-05-06 03:33 | 50.02000 | -58.86895 | 32790 ft | 543 kts | 52° |
| 2026-05-06 03:34 | 50.06266 | -58.77300 | 32800 ft | 542 kts | 52° |
| 2026-05-06 03:34 | 50.10543 | -58.67648 | 32800 ft | 541 kts | 52° |
| 2026-05-06 03:35 | 50.14809 | -58.57984 | 32823 ft | 540 kts | 52° |
| 2026-05-06 03:35 | 50.19054 | -58.48334 | 32809 ft | 539 kts | 52° |
| 2026-05-06 03:36 | 50.23269 | -58.38718 | 32806 ft | 539 kts | 52° |
| 2026-05-06 03:36 | 50.27497 | -58.29034 | 32809 ft | 538 kts | 52° |
| 2026-05-06 03:37 | 50.31709 | -58.19354 | 32816 ft | 539 kts | 52° |
| 2026-05-06 03:37 | 50.35917 | -58.09645 | 32808 ft | 539 kts | 52° |
| 2026-05-06 03:38 | 50.40113 | -57.99928 | 32818 ft | 539 kts | 52° |
| 2026-05-06 03:38 | 50.44306 | -57.90184 | 32826 ft | 539 kts | 52° |
| 2026-05-06 03:39 | 50.48494 | -57.80415 | 32813 ft | 540 kts | 52° |
| 2026-05-06 03:39 | 50.52680 | -57.70613 | 32808 ft | 540 kts | 52° |
| 2026-05-06 03:40 | 50.56830 | -57.60856 | 32807 ft | 538 kts | 52° |
| 2026-05-06 03:40 | 50.60987 | -57.51048 | 32817 ft | 537 kts | 52° |
| 2026-05-06 03:41 | 50.65125 | -57.41250 | 32804 ft | 537 kts | 52° |
| 2026-05-06 03:41 | 50.69251 | -57.31443 | 32814 ft | 536 kts | 52° |
| 2026-05-06 03:42 | 50.73339 | -57.21691 | 32812 ft | 536 kts | 53° |
| 2026-05-06 03:42 | 50.77445 | -57.11858 | 32826 ft | 536 kts | 52° |
| 2026-05-06 03:43 | 50.81549 | -57.01994 | 32825 ft | 537 kts | 52° |
| 2026-05-06 03:43 | 50.85647 | -56.92104 | 32824 ft | 537 kts | 52° |
| 2026-05-06 03:44 | 50.89714 | -56.82253 | 32827 ft | 537 kts | 53° |
| 2026-05-06 03:44 | 50.93795 | -56.72330 | 32839 ft | 537 kts | 52° |
| 2026-05-06 03:45 | 50.97872 | -56.62380 | 32851 ft | 537 kts | 53° |
| 2026-05-06 03:45 | 51.01943 | -56.52405 | 32850 ft | 537 kts | 53° |
| 2026-05-06 03:46 | 51.05999 | -56.42431 | 32844 ft | 536 kts | 53° |
| 2026-05-06 03:46 | 51.10011 | -56.32525 | 32852 ft | 536 kts | 53° |
| 2026-05-06 03:47 | 51.14042 | -56.22532 | 32854 ft | 535 kts | 53° |
| 2026-05-06 03:47 | 51.18057 | -56.12544 | 32869 ft | 535 kts | 53° |
| 2026-05-06 03:48 | 51.22058 | -56.02552 | 32889 ft | 535 kts | 53° |
| 2026-05-06 03:48 | 51.26040 | -55.92567 | 32865 ft | 535 kts | 53° |
| 2026-05-06 03:49 | 51.30023 | -55.82542 | 32856 ft | 534 kts | 53° |
| 2026-05-06 03:49 | 51.33999 | -55.72496 | 32855 ft | 534 kts | 53° |
| 2026-05-06 03:50 | 51.37965 | -55.62434 | 32857 ft | 535 kts | 53° |
| 2026-05-06 03:50 | 51.41903 | -55.52409 | 32861 ft | 535 kts | 53° |
| 2026-05-06 03:51 | 51.45861 | -55.42288 | 32856 ft | 535 kts | 53° |
| 2026-05-06 03:51 | 51.49803 | -55.32170 | 32858 ft | 535 kts | 53° |
| 2026-05-06 03:52 | 51.53742 | -55.22020 | 32872 ft | 536 kts | 53° |
| 2026-05-06 03:52 | 51.57648 | -55.11915 | 32869 ft | 536 kts | 53° |
| 2026-05-06 03:53 | 51.61581 | -55.01700 | 32872 ft | 536 kts | 53° |
| 2026-05-06 03:53 | 51.65498 | -54.91484 | 32876 ft | 536 kts | 53° |
| 2026-05-06 03:54 | 51.69415 | -54.81226 | 32884 ft | 536 kts | 53° |
| 2026-05-06 03:54 | 51.73292 | -54.71035 | 32877 ft | 535 kts | 53° |
| 2026-05-06 03:55 | 51.77174 | -54.60789 | 32889 ft | 535 kts | 53° |
| 2026-05-06 03:55 | 51.80935 | -54.50405 | 32892 ft | 537 kts | 59° |
| 2026-05-06 03:56 | 51.84128 | -54.39454 | 32892 ft | 539 kts | 60° |
| 2026-05-06 03:56 | 51.87247 | -54.28422 | 32892 ft | 538 kts | 60° |
| 2026-05-06 03:57 | 51.90371 | -54.17441 | 32898 ft | 536 kts | 60° |
| 2026-05-06 03:57 | 51.93491 | -54.06539 | 32904 ft | 536 kts | 60° |
| 2026-05-06 03:58 | 51.96622 | -53.95577 | 32915 ft | 536 kts | 60° |
| 2026-05-06 03:58 | 51.99737 | -53.84611 | 32897 ft | 534 kts | 60° |
| 2026-05-06 03:59 | 52.02833 | -53.73653 | 32903 ft | 532 kts | 60° |
| 2026-05-06 03:59 | 52.05886 | -53.62798 | 32909 ft | 531 kts | 60° |
| 2026-05-06 04:00 | 52.08942 | -53.51877 | 32938 ft | 531 kts | 60° |
| 2026-05-06 04:00 | 52.11999 | -53.40907 | 32917 ft | 531 kts | 60° |
| 2026-05-06 04:01 | 52.15039 | -53.29945 | 32923 ft | 531 kts | 60° |
| 2026-05-06 04:01 | 52.18069 | -53.18967 | 32924 ft | 531 kts | 60° |
| 2026-05-06 04:02 | 52.21074 | -53.08028 | 32963 ft | 531 kts | 61° |
| 2026-05-06 04:02 | 52.24089 | -52.97001 | 32933 ft | 532 kts | 61° |
| 2026-05-06 04:03 | 52.27093 | -52.85956 | 32934 ft | 532 kts | 61° |
| 2026-05-06 04:03 | 52.30088 | -52.74894 | 32935 ft | 531 kts | 61° |
| 2026-05-06 04:04 | 52.33050 | -52.63902 | 32930 ft | 531 kts | 61° |
| 2026-05-06 04:04 | 52.36017 | -52.52838 | 32944 ft | 530 kts | 61° |
| 2026-05-06 04:05 | 52.38973 | -52.41763 | 32935 ft | 530 kts | 61° |
| 2026-05-06 04:05 | 52.41913 | -52.30696 | 32934 ft | 529 kts | 61° |
| 2026-05-06 04:06 | 52.44839 | -52.19625 | 32937 ft | 529 kts | 61° |
| 2026-05-06 04:06 | 52.47737 | -52.08609 | 32938 ft | 529 kts | 61° |
| 2026-05-06 04:07 | 52.50648 | -51.97492 | 32939 ft | 529 kts | 62° |
| 2026-05-06 04:07 | 52.53544 | -51.86373 | 32940 ft | 530 kts | 62° |
| 2026-05-06 04:08 | 52.56436 | -51.75217 | 32940 ft | 530 kts | 62° |
| 2026-05-06 04:08 | 52.59316 | -51.64049 | 32965 ft | 531 kts | 62° |
| 2026-05-06 04:09 | 52.62196 | -51.52830 | 32952 ft | 532 kts | 62° |
| 2026-05-06 04:09 | 52.65069 | -51.41579 | 32950 ft | 533 kts | 62° |
| 2026-05-06 04:10 | 52.67935 | -51.30298 | 32952 ft | 534 kts | 62° |
| 2026-05-06 04:10 | 52.70795 | -51.18982 | 32943 ft | 534 kts | 62° |
| 2026-05-06 04:11 | 52.73630 | -51.07713 | 32949 ft | 536 kts | 62° |
| 2026-05-06 04:11 | 52.76483 | -50.96311 | 32947 ft | 537 kts | 62° |
| 2026-05-06 04:12 | 52.79325 | -50.84891 | 32954 ft | 537 kts | 62° |
| 2026-05-06 04:12 | 52.82158 | -50.73452 | 32951 ft | 538 kts | 63° |
| 2026-05-06 04:13 | 52.84982 | -50.61986 | 32957 ft | 537 kts | 62° |
| 2026-05-06 04:13 | 52.87771 | -50.50606 | 32953 ft | 535 kts | 62° |
| 2026-05-06 04:14 | 52.90555 | -50.39186 | 32957 ft | 533 kts | 62° |
| 2026-05-06 04:14 | 52.93320 | -50.27789 | 32965 ft | 532 kts | 62° |
| 2026-05-06 04:15 | 52.96068 | -50.16400 | 33002 ft | 531 kts | 62° |
| 2026-05-06 04:15 | 52.98804 | -50.05010 | 32971 ft | 529 kts | 62° |
| 2026-05-06 04:16 | 53.01081 | -49.93395 | 32962 ft | 535 kts | 71° |
| 2026-05-06 04:16 | 53.02764 | -49.81366 | 32971 ft | 535 kts | 72° |
| 2026-05-06 04:17 | 53.04418 | -49.69308 | 32974 ft | 534 kts | 71° |
| 2026-05-06 04:17 | 53.06088 | -49.57337 | 32969 ft | 535 kts | 71° |
| 2026-05-06 04:18 | 53.07780 | -49.45284 | 32982 ft | 534 kts | 71° |
| 2026-05-06 04:18 | 53.09462 | -49.33244 | 32977 ft | 533 kts | 71° |
| 2026-05-06 04:19 | 53.11126 | -49.21223 | 32981 ft | 533 kts | 71° |
| 2026-05-06 04:19 | 53.12775 | -49.09192 | 32980 ft | 533 kts | 71° |
| 2026-05-06 04:20 | 53.14402 | -48.97229 | 32984 ft | 533 kts | 72° |
| 2026-05-06 04:20 | 53.15765 | -48.87121 | 32976 ft | 532 kts | 72° |
| 2026-05-06 04:21 | 53.17633 | -48.73156 | 32984 ft | 530 kts | 72° |
| 2026-05-06 04:21 | 53.18956 | -48.63184 | 32979 ft | 529 kts | 72° |
| 2026-05-06 04:22 | 53.20536 | -48.51190 | 32980 ft | 529 kts | 72° |
| 2026-05-06 04:23 | 53.22881 | -48.33209 | 32988 ft | 528 kts | 73° |
| 2026-05-06 04:23 | 53.24429 | -48.21211 | 32981 ft | 528 kts | 73° |
| 2026-05-06 04:24 | 53.25962 | -48.09215 | 32984 ft | 528 kts | 73° |
| 2026-05-06 04:24 | 53.27485 | -47.97209 | 32993 ft | 528 kts | 74° |
| 2026-05-06 04:25 | 53.28986 | -47.85269 | 33012 ft | 528 kts | 75° |
| 2026-05-06 04:25 | 53.30484 | -47.73246 | 32992 ft | 528 kts | 75° |
| 2026-05-06 04:26 | 53.31970 | -47.61208 | 32992 ft | 527 kts | 75° |
| 2026-05-06 04:26 | 53.33445 | -47.49159 | 32994 ft | 527 kts | 75° |
| 2026-05-06 04:27 | 53.34893 | -47.37220 | 32993 ft | 526 kts | 75° |
| 2026-05-06 04:27 | 53.36339 | -47.25205 | 33011 ft | 526 kts | 76° |
| 2026-05-06 04:28 | 53.37771 | -47.13189 | 33001 ft | 525 kts | 76° |
| 2026-05-06 04:28 | 53.39187 | -47.01188 | 32997 ft | 525 kts | 76° |
| 2026-05-06 04:29 | 53.40582 | -46.89266 | 32997 ft | 524 kts | 76° |
| 2026-05-06 04:29 | 53.41974 | -46.77260 | 33003 ft | 523 kts | 76° |
| 2026-05-06 04:30 | 53.43355 | -46.65236 | 32998 ft | 524 kts | 77° |
| 2026-05-06 04:30 | 53.44716 | -46.53273 | 33010 ft | 524 kts | 77° |
| 2026-05-06 04:31 | 53.46072 | -46.41247 | 33008 ft | 525 kts | 77° |
| 2026-05-06 04:31 | 53.47418 | -46.29188 | 33009 ft | 525 kts | 77° |
| 2026-05-06 04:32 | 53.48751 | -46.17124 | 33008 ft | 525 kts | 77° |
| 2026-05-06 04:32 | 53.50065 | -46.05121 | 32995 ft | 526 kts | 77° |
| 2026-05-06 04:33 | 53.51374 | -45.93041 | 33009 ft | 525 kts | 77° |
| 2026-05-06 04:33 | 53.52671 | -45.80958 | 33015 ft | 525 kts | 77° |
| 2026-05-06 04:34 | 53.53955 | -45.68875 | 33010 ft | 525 kts | 77° |
| 2026-05-06 04:34 | 53.55226 | -45.56784 | 33018 ft | 525 kts | 77° |
| 2026-05-06 04:35 | 53.56487 | -45.44679 | 33032 ft | 525 kts | 78° |
| 2026-05-06 04:35 | 53.57726 | -45.32654 | 33018 ft | 524 kts | 78° |
| 2026-05-06 04:36 | 53.58957 | -45.20573 | 33014 ft | 523 kts | 78° |
| 2026-05-06 04:36 | 53.60176 | -45.08498 | 33019 ft | 523 kts | 78° |
| 2026-05-06 04:37 | 53.61380 | -44.96433 | 33031 ft | 522 kts | 78° |
| 2026-05-06 04:37 | 53.62575 | -44.84348 | 33041 ft | 522 kts | 79° |
| 2026-05-06 04:38 | 53.63754 | -44.72282 | 33027 ft | 521 kts | 79° |
| 2026-05-06 04:38 | 53.64918 | -44.60233 | 33027 ft | 520 kts | 79° |
| 2026-05-06 04:39 | 53.66060 | -44.48293 | 33029 ft | 519 kts | 79° |
| 2026-05-06 04:39 | 53.67198 | -44.36258 | 33035 ft | 519 kts | 79° |
| 2026-05-06 04:40 | 53.68322 | -44.24233 | 33052 ft | 519 kts | 80° |
| 2026-05-06 04:40 | 53.69434 | -44.12207 | 33042 ft | 518 kts | 80° |
| 2026-05-06 04:41 | 53.70532 | -44.00198 | 33042 ft | 517 kts | 80° |
| 2026-05-06 04:41 | 53.71616 | -43.88202 | 33048 ft | 517 kts | 80° |
| 2026-05-06 04:42 | 53.72689 | -43.76184 | 33053 ft | 517 kts | 81° |
| 2026-05-06 04:42 | 53.73744 | -43.64232 | 33072 ft | 517 kts | 81° |
| 2026-05-06 04:43 | 53.74792 | -43.52225 | 33051 ft | 516 kts | 81° |
| 2026-05-06 04:43 | 53.75824 | -43.40244 | 33063 ft | 515 kts | 81° |
| 2026-05-06 04:44 | 53.76845 | -43.28250 | 33061 ft | 514 kts | 81° |
| 2026-05-06 04:44 | 53.77847 | -43.16345 | 33058 ft | 514 kts | 82° |
| 2026-05-06 04:45 | 53.78841 | -43.04374 | 33072 ft | 514 kts | 82° |
| 2026-05-06 04:45 | 53.79823 | -42.92409 | 33069 ft | 513 kts | 82° |
| 2026-05-06 04:46 | 53.80797 | -42.80385 | 33420 ft | 515 kts | 82° |
| 2026-05-06 04:46 | 53.81278 | -42.74388 | 33815 ft | 514 kts | 82° |
| 2026-05-06 04:46 | 53.81756 | -42.68394 | 34191 ft | 512 kts | 83° |
| 2026-05-06 04:46 | 53.82222 | -42.62513 | 34482 ft | 510 kts | 83° |
| 2026-05-06 04:47 | 53.82691 | -42.56549 | 34749 ft | 510 kts | 83° |
| 2026-05-06 04:47 | 53.83156 | -42.50597 | 34946 ft | 511 kts | 83° |
| 2026-05-06 04:47 | 53.83621 | -42.44611 | 35015 ft | 513 kts | 83° |
| 2026-05-06 04:48 | 53.84542 | -42.32643 | 35064 ft | 510 kts | 83° |
| 2026-05-06 04:48 | 53.85443 | -42.20762 | 35072 ft | 508 kts | 83° |
| 2026-05-06 04:49 | 53.86327 | -42.08960 | 35080 ft | 507 kts | 83° |
| 2026-05-06 04:49 | 53.87200 | -41.97124 | 35077 ft | 506 kts | 83° |
| 2026-05-06 04:50 | 53.88063 | -41.85276 | 35079 ft | 506 kts | 83° |
| 2026-05-06 04:50 | 53.88915 | -41.73419 | 35093 ft | 507 kts | 84° |
| 2026-05-06 04:51 | 53.89756 | -41.61537 | 35084 ft | 507 kts | 84° |
| 2026-05-06 04:51 | 53.90586 | -41.49642 | 35091 ft | 507 kts | 84° |
| 2026-05-06 04:52 | 53.91404 | -41.37751 | 35086 ft | 507 kts | 84° |
| 2026-05-06 04:52 | 53.92206 | -41.25914 | 35086 ft | 508 kts | 84° |
| 2026-05-06 04:53 | 53.93000 | -41.14005 | 35095 ft | 507 kts | 84° |
| 2026-05-06 04:53 | 53.93783 | -41.02103 | 35090 ft | 507 kts | 84° |
| 2026-05-06 04:54 | 53.94552 | -40.90216 | 35087 ft | 506 kts | 85° |
| 2026-05-06 04:54 | 53.95308 | -40.78346 | 35093 ft | 505 kts | 85° |
| 2026-05-06 04:55 | 53.96048 | -40.66554 | 35095 ft | 505 kts | 85° |
| 2026-05-06 04:55 | 53.96780 | -40.54689 | 35095 ft | 504 kts | 85° |
| 2026-05-06 04:56 | 53.97499 | -40.42837 | 35095 ft | 504 kts | 85° |
| 2026-05-06 04:56 | 53.98207 | -40.30976 | 35101 ft | 504 kts | 85° |
| 2026-05-06 04:57 | 53.98903 | -40.19108 | 35106 ft | 504 kts | 85° |
| 2026-05-06 04:57 | 53.99586 | -40.07307 | 35104 ft | 505 kts | 85° |
| 2026-05-06 04:58 | 54.00552 | -39.95457 | 35098 ft | 506 kts | 77° |
| 2026-05-06 04:58 | 54.02246 | -39.83804 | 35111 ft | 506 kts | 77° |
| 2026-05-06 04:59 | 54.03949 | -39.72260 | 35108 ft | 506 kts | 77° |
| 2026-05-06 04:59 | 54.05621 | -39.60634 | 35109 ft | 506 kts | 77° |
| 2026-05-06 05:00 | 54.07259 | -39.48988 | 35116 ft | 506 kts | 77° |
| 2026-05-06 05:00 | 54.08881 | -39.37322 | 35117 ft | 505 kts | 78° |
| 2026-05-06 05:01 | 54.10486 | -39.25698 | 35116 ft | 504 kts | 78° |
| 2026-05-06 05:01 | 54.12081 | -39.14070 | 35118 ft | 503 kts | 78° |
| 2026-05-06 05:02 | 54.13665 | -39.02431 | 35117 ft | 502 kts | 78° |
| 2026-05-06 05:02 | 54.15224 | -38.90889 | 35118 ft | 502 kts | 78° |
| 2026-05-06 05:03 | 54.16783 | -38.79253 | 35125 ft | 501 kts | 78° |
| 2026-05-06 05:03 | 54.18323 | -38.67668 | 35120 ft | 500 kts | 78° |
| 2026-05-06 05:04 | 54.19852 | -38.56075 | 35127 ft | 500 kts | 78° |
| 2026-05-06 05:04 | 54.21359 | -38.44553 | 35124 ft | 499 kts | 78° |
| 2026-05-06 05:05 | 54.22864 | -38.32960 | 35122 ft | 499 kts | 78° |
| 2026-05-06 05:05 | 54.24357 | -38.21364 | 35130 ft | 498 kts | 79° |
| 2026-05-06 05:06 | 54.25834 | -38.09789 | 35124 ft | 498 kts | 79° |
| 2026-05-06 05:06 | 54.27289 | -37.98299 | 35123 ft | 497 kts | 79° |
| 2026-05-06 05:07 | 54.28741 | -37.86739 | 35125 ft | 496 kts | 79° |
| 2026-05-06 05:07 | 54.30182 | -37.75168 | 35119 ft | 496 kts | 79° |
| 2026-05-06 05:08 | 54.31610 | -37.63603 | 35129 ft | 496 kts | 79° |
| 2026-05-06 05:08 | 54.32788 | -37.53990 | 35125 ft | 495 kts | 79° |
| 2026-05-06 05:09 | 54.34193 | -37.42429 | 35119 ft | 495 kts | 80° |
| 2026-05-06 05:09 | 54.35586 | -37.30877 | 35130 ft | 495 kts | 80° |
| 2026-05-06 05:10 | 54.36966 | -37.19329 | 35122 ft | 495 kts | 80° |
| 2026-05-06 05:10 | 54.38337 | -37.07757 | 35130 ft | 494 kts | 80° |
| 2026-05-06 05:11 | 54.39694 | -36.96203 | 35133 ft | 494 kts | 80° |
| 2026-05-06 05:11 | 54.41033 | -36.84703 | 35132 ft | 494 kts | 81° |
| 2026-05-06 05:12 | 54.42367 | -36.73135 | 35123 ft | 494 kts | 81° |
| 2026-05-06 05:12 | 54.43690 | -36.61565 | 35110 ft | 494 kts | 81° |
| 2026-05-06 05:13 | 54.45004 | -36.49977 | 35127 ft | 494 kts | 81° |
| 2026-05-06 05:13 | 54.46305 | -36.38388 | 35128 ft | 494 kts | 81° |
| 2026-05-06 05:14 | 54.47597 | -36.26775 | 35127 ft | 494 kts | 81° |
| 2026-05-06 05:14 | 54.48881 | -36.15132 | 35117 ft | 494 kts | 81° |
| 2026-05-06 05:15 | 54.50150 | -36.03511 | 35111 ft | 494 kts | 81° |
| 2026-05-06 05:15 | 54.51400 | -35.91956 | 35111 ft | 494 kts | 81° |
| 2026-05-06 05:16 | 54.52646 | -35.80332 | 35119 ft | 493 kts | 82° |
| 2026-05-06 05:16 | 54.53880 | -35.68701 | 35112 ft | 493 kts | 82° |
| 2026-05-06 05:17 | 54.55101 | -35.57087 | 35116 ft | 493 kts | 82° |
| 2026-05-06 05:17 | 54.56311 | -35.45461 | 35102 ft | 492 kts | 82° |
| 2026-05-06 05:18 | 54.57508 | -35.33851 | 35102 ft | 492 kts | 82° |
| 2026-05-06 05:18 | 54.58694 | -35.22228 | 35105 ft | 492 kts | 82° |
| 2026-05-06 05:19 | 54.59860 | -35.10697 | 35111 ft | 492 kts | 82° |
| 2026-05-06 05:19 | 54.61024 | -34.99057 | 35107 ft | 492 kts | 82° |
| 2026-05-06 05:20 | 54.62177 | -34.87406 | 35109 ft | 492 kts | 82° |
| 2026-05-06 05:20 | 54.63322 | -34.75729 | 35100 ft | 492 kts | 82° |
| 2026-05-06 05:21 | 54.64446 | -34.64143 | 35098 ft | 493 kts | 83° |
| 2026-05-06 05:21 | 54.65567 | -34.52458 | 35101 ft | 493 kts | 83° |
| 2026-05-06 05:22 | 54.66676 | -34.40777 | 35101 ft | 493 kts | 83° |
| 2026-05-06 05:22 | 54.67775 | -34.29090 | 35093 ft | 492 kts | 83° |
| 2026-05-06 05:23 | 54.68862 | -34.17396 | 35093 ft | 492 kts | 83° |
| 2026-05-06 05:23 | 54.70459 | -33.99975 | 35089 ft | 491 kts | 83° |
| 2026-05-06 05:24 | 54.71515 | -33.88295 | 35091 ft | 491 kts | 83° |
| 2026-05-06 05:24 | 54.72560 | -33.76610 | 35079 ft | 491 kts | 83° |
| 2026-05-06 05:25 | 54.73591 | -33.64946 | 35088 ft | 490 kts | 84° |
| 2026-05-06 05:25 | 54.74611 | -33.53269 | 35093 ft | 490 kts | 84° |
| 2026-05-06 05:26 | 54.75614 | -33.41670 | 35082 ft | 489 kts | 84° |
| 2026-05-06 05:26 | 54.76611 | -33.29993 | 35080 ft | 489 kts | 84° |
| 2026-05-06 05:27 | 54.77597 | -33.18312 | 35078 ft | 489 kts | 84° |
| 2026-05-06 05:27 | 54.78564 | -33.06721 | 35085 ft | 488 kts | 84° |
| 2026-05-06 05:28 | 54.79526 | -32.95048 | 35086 ft | 487 kts | 84° |
| 2026-05-06 05:28 | 54.80471 | -32.83434 | 35083 ft | 487 kts | 84° |
| 2026-05-06 05:29 | 54.81407 | -32.71795 | 35087 ft | 486 kts | 84° |
| 2026-05-06 05:29 | 54.82324 | -32.60252 | 35067 ft | 486 kts | 85° |
| 2026-05-06 05:30 | 54.83235 | -32.48641 | 35082 ft | 485 kts | 85° |
| 2026-05-06 05:30 | 54.84133 | -32.37046 | 35092 ft | 485 kts | 85° |
| 2026-05-06 05:31 | 54.85020 | -32.25442 | 35091 ft | 485 kts | 85° |
| 2026-05-06 05:31 | 54.85896 | -32.13826 | 35088 ft | 485 kts | 85° |
| 2026-05-06 05:32 | 54.86762 | -32.02213 | 35074 ft | 485 kts | 85° |
| 2026-05-06 05:32 | 54.87610 | -31.90685 | 35085 ft | 483 kts | 86° |
| 2026-05-06 05:33 | 54.88449 | -31.79120 | 35095 ft | 481 kts | 86° |
| 2026-05-06 05:33 | 54.89273 | -31.67599 | 35097 ft | 479 kts | 86° |
| 2026-05-06 05:34 | 54.90082 | -31.56130 | 35100 ft | 478 kts | 86° |
| 2026-05-06 05:34 | 54.90876 | -31.44722 | 35076 ft | 477 kts | 86° |
| 2026-05-06 05:35 | 54.91661 | -31.33291 | 35098 ft | 476 kts | 86° |
| 2026-05-06 05:35 | 54.92434 | -31.21872 | 35096 ft | 475 kts | 86° |
| 2026-05-06 05:36 | 54.93195 | -31.10455 | 35109 ft | 475 kts | 86° |
| 2026-05-06 05:36 | 54.93947 | -30.99015 | 35110 ft | 476 kts | 87° |
| 2026-05-06 05:37 | 54.94690 | -30.87557 | 35110 ft | 477 kts | 87° |
| 2026-05-06 05:37 | 54.95423 | -30.76066 | 35108 ft | 478 kts | 86° |
| 2026-05-06 05:38 | 54.96142 | -30.64635 | 35116 ft | 478 kts | 86° |
| 2026-05-06 05:38 | 54.96856 | -30.53100 | 35119 ft | 479 kts | 87° |
| 2026-05-06 05:39 | 54.97559 | -30.41560 | 35115 ft | 479 kts | 87° |
| 2026-05-06 05:39 | 54.98252 | -30.30018 | 35120 ft | 479 kts | 87° |
| 2026-05-06 05:40 | 54.98932 | -30.18476 | 35116 ft | 479 kts | 86° |
| 2026-05-06 05:40 | 54.99602 | -30.06983 | 35124 ft | 479 kts | 86° |
| 2026-05-06 05:41 | 55.00556 | -29.95476 | 35122 ft | 482 kts | 79° |
| 2026-05-06 05:41 | 55.02201 | -29.84136 | 35123 ft | 482 kts | 78° |
| 2026-05-06 05:42 | 55.03862 | -29.72810 | 35125 ft | 482 kts | 78° |
| 2026-05-06 05:42 | 55.05488 | -29.61452 | 35125 ft | 483 kts | 78° |
| 2026-05-06 05:43 | 55.07078 | -29.50131 | 35133 ft | 483 kts | 78° |
| 2026-05-06 05:43 | 55.08663 | -29.38720 | 35131 ft | 484 kts | 78° |
| 2026-05-06 05:44 | 55.10240 | -29.27279 | 35134 ft | 484 kts | 78° |
| 2026-05-06 05:44 | 55.11809 | -29.15829 | 35133 ft | 485 kts | 78° |
| 2026-05-06 05:45 | 55.13368 | -29.04360 | 35134 ft | 485 kts | 78° |
| 2026-05-06 05:45 | 55.14906 | -28.92961 | 35133 ft | 485 kts | 78° |
| 2026-05-06 05:46 | 55.16443 | -28.81480 | 35130 ft | 485 kts | 78° |
| 2026-05-06 05:46 | 55.17970 | -28.69986 | 35131 ft | 484 kts | 78° |
| 2026-05-06 05:47 | 55.19483 | -28.58501 | 35123 ft | 484 kts | 78° |
| 2026-05-06 05:47 | 55.20988 | -28.46986 | 35134 ft | 484 kts | 78° |
| 2026-05-06 05:48 | 55.22483 | -28.35461 | 35134 ft | 485 kts | 78° |
| 2026-05-06 05:48 | 55.23967 | -28.23930 | 35134 ft | 485 kts | 78° |
| 2026-05-06 05:49 | 55.25431 | -28.12457 | 35134 ft | 486 kts | 78° |
| 2026-05-06 05:49 | 55.26896 | -28.00887 | 35130 ft | 486 kts | 78° |
| 2026-05-06 05:50 | 55.28351 | -27.89300 | 35135 ft | 487 kts | 78° |
| 2026-05-06 05:50 | 55.29800 | -27.77664 | 35134 ft | 488 kts | 78° |
| 2026-05-06 05:51 | 55.31237 | -27.66025 | 35131 ft | 488 kts | 78° |
| 2026-05-06 05:51 | 55.32665 | -27.54356 | 35125 ft | 489 kts | 78° |
| 2026-05-06 05:52 | 55.34083 | -27.42676 | 35134 ft | 489 kts | 78° |
| 2026-05-06 05:52 | 55.35491 | -27.30975 | 35134 ft | 490 kts | 78° |
| 2026-05-06 05:53 | 55.36890 | -27.19254 | 35133 ft | 490 kts | 78° |
| 2026-05-06 05:53 | 55.38267 | -27.07611 | 35131 ft | 490 kts | 78° |
| 2026-05-06 05:54 | 55.39646 | -26.95846 | 35130 ft | 490 kts | 78° |
| 2026-05-06 05:54 | 55.41014 | -26.84078 | 35129 ft | 490 kts | 78° |
| 2026-05-06 05:55 | 55.42361 | -26.72376 | 35126 ft | 491 kts | 78° |
| 2026-05-06 05:55 | 55.43716 | -26.60509 | 35123 ft | 491 kts | 78° |
| 2026-05-06 05:56 | 55.45041 | -26.48789 | 35123 ft | 491 kts | 79° |
| 2026-05-06 05:56 | 55.46366 | -26.36958 | 35119 ft | 492 kts | 78° |
| 2026-05-06 05:57 | 55.47680 | -26.25127 | 35126 ft | 492 kts | 78° |
| 2026-05-06 05:57 | 55.48984 | -26.13264 | 35120 ft | 493 kts | 78° |
| 2026-05-06 05:58 | 55.50063 | -26.03374 | 35118 ft | 493 kts | 78° |
| 2026-05-06 05:58 | 55.51557 | -25.89538 | 35124 ft | 494 kts | 79° |
| 2026-05-06 05:59 | 55.52829 | -25.77624 | 35109 ft | 494 kts | 78° |
| 2026-05-06 05:59 | 55.53888 | -25.67625 | 35116 ft | 495 kts | 78° |
| 2026-05-06 06:00 | 55.55136 | -25.55738 | 35111 ft | 495 kts | 78° |
| 2026-05-06 06:00 | 55.56380 | -25.43764 | 35112 ft | 495 kts | 78° |
| 2026-05-06 06:01 | 55.57612 | -25.31792 | 35117 ft | 496 kts | 78° |
| 2026-05-06 06:01 | 55.58834 | -25.19788 | 35106 ft | 497 kts | 78° |
| 2026-05-06 06:02 | 55.60048 | -25.07750 | 35097 ft | 497 kts | 78° |
| 2026-05-06 06:02 | 55.61249 | -24.95701 | 35103 ft | 497 kts | 78° |
| 2026-05-06 06:03 | 55.62438 | -24.83657 | 35101 ft | 497 kts | 79° |
| 2026-05-06 06:03 | 55.63615 | -24.71599 | 35108 ft | 497 kts | 78° |
| 2026-05-06 06:04 | 55.64783 | -24.59521 | 35098 ft | 498 kts | 78° |
| 2026-05-06 06:04 | 55.65932 | -24.47503 | 35098 ft | 498 kts | 78° |
| 2026-05-06 06:05 | 55.67078 | -24.35381 | 35091 ft | 499 kts | 79° |
| 2026-05-06 06:05 | 55.68214 | -24.23228 | 35090 ft | 499 kts | 79° |
| 2026-05-06 06:06 | 55.69338 | -24.11068 | 35094 ft | 500 kts | 78° |
| 2026-05-06 06:06 | 55.70453 | -23.98874 | 35086 ft | 501 kts | 78° |
| 2026-05-06 06:07 | 55.71551 | -23.86729 | 35087 ft | 501 kts | 79° |
| 2026-05-06 06:07 | 55.72643 | -23.74509 | 35082 ft | 502 kts | 79° |
| 2026-05-06 06:08 | 55.73724 | -23.62264 | 35082 ft | 502 kts | 79° |
| 2026-05-06 06:08 | 55.74793 | -23.50022 | 35079 ft | 502 kts | 79° |
| 2026-05-06 06:09 | 55.75850 | -23.37751 | 35078 ft | 502 kts | 79° |
| 2026-05-06 06:09 | 55.76895 | -23.25488 | 35079 ft | 502 kts | 79° |
| 2026-05-06 06:10 | 55.77926 | -23.13235 | 35079 ft | 502 kts | 79° |
| 2026-05-06 06:10 | 55.78940 | -23.01025 | 35079 ft | 503 kts | 79° |
| 2026-05-06 06:11 | 55.79950 | -22.88726 | 35075 ft | 503 kts | 79° |
| 2026-05-06 06:11 | 55.80949 | -22.76396 | 35072 ft | 504 kts | 79° |
| 2026-05-06 06:12 | 55.81936 | -22.64055 | 35063 ft | 504 kts | 79° |
| 2026-05-06 06:12 | 55.82910 | -22.51718 | 35095 ft | 503 kts | 79° |
| 2026-05-06 06:13 | 55.83873 | -22.39350 | 35066 ft | 504 kts | 79° |
| 2026-05-06 06:13 | 55.84823 | -22.26988 | 35068 ft | 504 kts | 79° |
| 2026-05-06 06:14 | 55.85756 | -22.14689 | 35062 ft | 505 kts | 79° |
| 2026-05-06 06:14 | 55.86683 | -22.02299 | 35062 ft | 505 kts | 79° |
| 2026-05-06 06:15 | 55.87597 | -21.89893 | 35074 ft | 506 kts | 79° |
| 2026-05-06 06:15 | 55.88501 | -21.77462 | 35066 ft | 507 kts | 79° |
| 2026-05-06 06:16 | 55.89396 | -21.64974 | 35058 ft | 507 kts | 79° |
| 2026-05-06 06:16 | 55.90273 | -21.52559 | 35058 ft | 508 kts | 79° |
| 2026-05-06 06:17 | 55.91144 | -21.40039 | 35052 ft | 508 kts | 79° |
| 2026-05-06 06:17 | 55.92001 | -21.27527 | 35049 ft | 509 kts | 79° |
| 2026-05-06 06:18 | 55.92850 | -21.14954 | 35055 ft | 510 kts | 79° |
| 2026-05-06 06:18 | 55.93684 | -21.02398 | 35048 ft | 510 kts | 79° |
| 2026-05-06 06:19 | 55.94501 | -20.89917 | 35055 ft | 510 kts | 80° |
| 2026-05-06 06:19 | 55.95311 | -20.77322 | 35072 ft | 511 kts | 79° |
| 2026-05-06 06:20 | 55.96109 | -20.64715 | 35051 ft | 511 kts | 79° |
| 2026-05-06 06:20 | 55.96894 | -20.52106 | 35046 ft | 512 kts | 80° |
| 2026-05-06 06:21 | 55.97670 | -20.39432 | 35047 ft | 512 kts | 80° |
| 2026-05-06 06:21 | 55.98431 | -20.26795 | 35047 ft | 512 kts | 80° |
| 2026-05-06 06:22 | 55.99179 | -20.14152 | 35043 ft | 512 kts | 80° |
| 2026-05-06 06:22 | 55.99910 | -20.01575 | 35044 ft | 512 kts | 81° |
| 2026-05-06 06:23 | 56.00296 | -19.88859 | 35046 ft | 513 kts | 84° |
| 2026-05-06 06:23 | 56.00498 | -19.76097 | 35044 ft | 513 kts | 85° |
| 2026-05-06 06:24 | 56.00689 | -19.63391 | 35072 ft | 513 kts | 84° |
| 2026-05-06 06:24 | 56.00892 | -19.50644 | 35049 ft | 513 kts | 84° |
| 2026-05-06 06:25 | 56.01094 | -19.37874 | 35042 ft | 514 kts | 84° |
| 2026-05-06 06:26 | 56.01374 | -19.18711 | 35045 ft | 514 kts | 84° |
| 2026-05-06 06:26 | 56.01543 | -19.05913 | 35039 ft | 515 kts | 84° |
| 2026-05-06 06:27 | 56.01697 | -18.93172 | 35046 ft | 516 kts | 84° |
| 2026-05-06 06:27 | 56.01838 | -18.80353 | 35047 ft | 516 kts | 84° |
| 2026-05-06 06:28 | 56.01967 | -18.67510 | 35047 ft | 516 kts | 85° |
| 2026-05-06 06:28 | 56.02083 | -18.54649 | 35045 ft | 517 kts | 85° |
| 2026-05-06 06:29 | 56.02184 | -18.41892 | 35065 ft | 517 kts | 85° |
| 2026-05-06 06:29 | 56.02273 | -18.28990 | 35047 ft | 518 kts | 85° |
| 2026-05-06 06:30 | 56.02349 | -18.16108 | 35046 ft | 518 kts | 85° |
| 2026-05-06 06:30 | 56.02410 | -18.03239 | 35049 ft | 517 kts | 85° |
| 2026-05-06 06:31 | 56.02459 | -17.90371 | 35045 ft | 516 kts | 85° |
| 2026-05-06 06:31 | 56.02494 | -17.77638 | 35043 ft | 515 kts | 85° |
| 2026-05-06 06:32 | 56.02516 | -17.64799 | 35039 ft | 515 kts | 85° |
| 2026-05-06 06:32 | 56.02525 | -17.52004 | 35041 ft | 514 kts | 85° |
| 2026-05-06 06:33 | 56.02521 | -17.39278 | 35046 ft | 514 kts | 85° |
| 2026-05-06 06:33 | 56.02503 | -17.26411 | 35063 ft | 514 kts | 86° |
| 2026-05-06 06:34 | 56.02472 | -17.13697 | 35049 ft | 515 kts | 86° |
| 2026-05-06 06:34 | 56.02428 | -17.00875 | 35043 ft | 515 kts | 86° |
| 2026-05-06 06:35 | 56.02370 | -16.88045 | 35041 ft | 515 kts | 86° |
| 2026-05-06 06:35 | 56.02300 | -16.75223 | 35040 ft | 516 kts | 86° |
| 2026-05-06 06:36 | 56.02216 | -16.62469 | 35056 ft | 516 kts | 86° |
| 2026-05-06 06:36 | 56.02119 | -16.49629 | 35044 ft | 517 kts | 86° |
| 2026-05-06 06:37 | 56.02007 | -16.36740 | 35021 ft | 518 kts | 86° |
| 2026-05-06 06:37 | 56.01882 | -16.23875 | 35034 ft | 516 kts | 86° |
| 2026-05-06 06:38 | 56.01744 | -16.11054 | 35034 ft | 515 kts | 86° |
| 2026-05-06 06:38 | 56.01594 | -15.98246 | 35044 ft | 515 kts | 86° |
| 2026-05-06 06:39 | 56.01431 | -15.85532 | 35037 ft | 514 kts | 87° |
| 2026-05-06 06:39 | 56.01255 | -15.72760 | 35038 ft | 514 kts | 87° |
| 2026-05-06 06:40 | 56.01065 | -15.59999 | 35038 ft | 514 kts | 87° |
| 2026-05-06 06:40 | 56.00863 | -15.47217 | 35057 ft | 514 kts | 87° |
| 2026-05-06 06:41 | 56.00648 | -15.34507 | 35037 ft | 514 kts | 87° |
| 2026-05-06 06:41 | 56.00419 | -15.21718 | 35037 ft | 514 kts | 87° |
| 2026-05-06 06:42 | 56.00177 | -15.08932 | 35035 ft | 514 kts | 88° |
| 2026-05-06 06:42 | 55.99941 | -14.96136 | 35035 ft | 514 kts | 86° |
| 2026-05-06 06:43 | 55.99967 | -14.83453 | 35045 ft | 513 kts | 84° |
| 2026-05-06 06:43 | 56.00065 | -14.70697 | 35034 ft | 514 kts | 85° |
| 2026-05-06 06:44 | 56.00104 | -14.57889 | 35027 ft | 514 kts | 85° |
| 2026-05-06 06:44 | 56.00102 | -14.45099 | 35027 ft | 515 kts | 85° |
| 2026-05-06 06:45 | 56.00087 | -14.32386 | 35024 ft | 514 kts | 85° |
| 2026-05-06 06:45 | 56.00064 | -14.19598 | 35033 ft | 513 kts | 86° |
| 2026-05-06 06:46 | 56.00014 | -14.08985 | 35032 ft | 513 kts | 88° |
| 2026-05-06 06:46 | 55.98621 | -13.94321 | 35039 ft | 519 kts | 103° |
| 2026-05-06 06:47 | 55.96042 | -13.82231 | 35045 ft | 521 kts | 110° |
| 2026-05-06 06:47 | 55.93690 | -13.72321 | 35032 ft | 521 kts | 110° |
| 2026-05-06 06:48 | 55.90874 | -13.60396 | 35041 ft | 522 kts | 110° |
| 2026-05-06 06:48 | 55.88081 | -13.48450 | 35041 ft | 522 kts | 110° |
| 2026-05-06 06:49 | 55.85309 | -13.36587 | 35043 ft | 522 kts | 110° |
| 2026-05-06 06:49 | 55.82509 | -13.24661 | 35040 ft | 522 kts | 110° |
| 2026-05-06 06:50 | 55.79700 | -13.12778 | 35046 ft | 521 kts | 110° |
| 2026-05-06 06:50 | 55.76877 | -13.00908 | 35064 ft | 520 kts | 110° |
| 2026-05-06 06:51 | 55.74047 | -12.89078 | 35047 ft | 520 kts | 110° |
| 2026-05-06 06:51 | 55.71210 | -12.77277 | 35050 ft | 519 kts | 111° |
| 2026-05-06 06:52 | 55.68365 | -12.65510 | 35045 ft | 519 kts | 111° |
| 2026-05-06 06:52 | 55.65524 | -12.53820 | 35041 ft | 518 kts | 111° |
| 2026-05-06 06:53 | 55.62658 | -12.42092 | 35049 ft | 517 kts | 111° |
| 2026-05-06 06:53 | 55.59787 | -12.30404 | 35041 ft | 517 kts | 111° |
| 2026-05-06 06:54 | 55.56909 | -12.18751 | 35059 ft | 517 kts | 111° |
| 2026-05-06 06:54 | 55.54024 | -12.07132 | 35045 ft | 517 kts | 111° |
| 2026-05-06 06:55 | 55.51140 | -11.95577 | 35045 ft | 517 kts | 111° |
| 2026-05-06 06:55 | 55.48225 | -11.83959 | 35051 ft | 517 kts | 111° |
| 2026-05-06 06:56 | 55.45304 | -11.72377 | 35070 ft | 517 kts | 112° |
| 2026-05-06 06:56 | 55.42381 | -11.60850 | 35055 ft | 517 kts | 112° |
| 2026-05-06 06:57 | 55.39436 | -11.49294 | 35055 ft | 518 kts | 112° |
| 2026-05-06 06:57 | 55.36478 | -11.37748 | 35072 ft | 518 kts | 112° |
| 2026-05-06 06:58 | 55.33508 | -11.26214 | 35054 ft | 518 kts | 112° |
| 2026-05-06 06:58 | 55.30522 | -11.14678 | 35053 ft | 518 kts | 112° |
| 2026-05-06 06:59 | 55.27527 | -11.03168 | 35057 ft | 518 kts | 112° |
| 2026-05-06 06:59 | 55.24526 | -10.91693 | 35065 ft | 517 kts | 112° |
| 2026-05-06 07:00 | 55.21538 | -10.80323 | 35064 ft | 516 kts | 112° |
| 2026-05-06 07:00 | 55.18528 | -10.68930 | 35063 ft | 515 kts | 112° |
| 2026-05-06 07:01 | 55.15515 | -10.57580 | 35066 ft | 514 kts | 113° |
| 2026-05-06 07:01 | 55.12496 | -10.46262 | 35085 ft | 514 kts | 113° |
| 2026-05-06 07:02 | 55.09463 | -10.34950 | 35077 ft | 514 kts | 113° |
| 2026-05-06 07:02 | 55.06417 | -10.23644 | 35071 ft | 513 kts | 113° |
| 2026-05-06 07:03 | 55.03386 | -10.12441 | 35072 ft | 513 kts | 113° |
| 2026-05-06 07:03 | 55.00411 | -10.01156 | 35072 ft | 512 kts | 109° |
| 2026-05-06 07:04 | 54.98387 | -9.89330 | 35073 ft | 508 kts | 101° |
| 2026-05-06 07:04 | 54.96758 | -9.77355 | 35071 ft | 509 kts | 101° |
| 2026-05-06 07:05 | 54.95090 | -9.65385 | 35066 ft | 509 kts | 101° |
| 2026-05-06 07:05 | 54.93376 | -9.53394 | 35061 ft | 510 kts | 102° |
| 2026-05-06 07:06 | 54.91645 | -9.41449 | 35066 ft | 510 kts | 102° |
| 2026-05-06 07:06 | 54.89898 | -9.29489 | 35054 ft | 510 kts | 102° |
| 2026-05-06 07:07 | 54.88154 | -9.17622 | 35058 ft | 510 kts | 102° |
| 2026-05-06 07:07 | 54.86388 | -9.05693 | 35062 ft | 509 kts | 102° |
| 2026-05-06 07:08 | 54.84614 | -8.93795 | 35058 ft | 508 kts | 103° |
| 2026-05-06 07:08 | 54.82833 | -8.81941 | 35054 ft | 507 kts | 103° |
| 2026-05-06 07:09 | 54.81042 | -8.70104 | 35051 ft | 507 kts | 103° |
| 2026-05-06 07:09 | 54.79254 | -8.58374 | 35044 ft | 506 kts | 103° |
| 2026-05-06 07:10 | 54.77440 | -8.46564 | 35040 ft | 506 kts | 103° |
| 2026-05-06 07:10 | 54.75620 | -8.34792 | 35044 ft | 506 kts | 104° |
| 2026-05-06 07:11 | 54.73786 | -8.23018 | 35041 ft | 506 kts | 104° |
| 2026-05-06 07:11 | 54.71937 | -8.11232 | 35042 ft | 506 kts | 104° |
| 2026-05-06 07:12 | 54.70081 | -7.99480 | 35038 ft | 506 kts | 104° |
| 2026-05-06 07:12 | 54.68213 | -7.87743 | 35042 ft | 506 kts | 105° |
| 2026-05-06 07:13 | 54.66334 | -7.76018 | 35043 ft | 506 kts | 105° |
| 2026-05-06 07:13 | 54.64446 | -7.64310 | 35042 ft | 506 kts | 105° |
| 2026-05-06 07:14 | 54.62558 | -7.52688 | 35046 ft | 506 kts | 105° |
| 2026-05-06 07:14 | 54.60640 | -7.40962 | 35042 ft | 506 kts | 105° |
| 2026-05-06 07:15 | 54.58719 | -7.29296 | 35049 ft | 506 kts | 105° |
| 2026-05-06 07:15 | 54.56785 | -7.17628 | 35053 ft | 506 kts | 105° |
| 2026-05-06 07:16 | 54.54837 | -7.05962 | 35051 ft | 506 kts | 106° |
| 2026-05-06 07:16 | 54.52895 | -6.94397 | 35053 ft | 506 kts | 106° |
| 2026-05-06 07:17 | 54.50924 | -6.82747 | 35054 ft | 506 kts | 107° |
| 2026-05-06 07:17 | 54.48944 | -6.71120 | 35054 ft | 506 kts | 107° |
| 2026-05-06 07:18 | 54.46950 | -6.59488 | 35048 ft | 506 kts | 107° |
| 2026-05-06 07:18 | 54.44946 | -6.47871 | 35048 ft | 506 kts | 107° |
| 2026-05-06 07:19 | 54.42944 | -6.36338 | 35051 ft | 506 kts | 107° |
| 2026-05-06 07:19 | 54.40921 | -6.24765 | 35053 ft | 506 kts | 107° |
| 2026-05-06 07:20 | 54.38889 | -6.13213 | 35052 ft | 505 kts | 107° |
| 2026-05-06 07:20 | 54.36845 | -6.01671 | 35047 ft | 505 kts | 107° |
| 2026-05-06 07:21 | 54.34793 | -5.90151 | 35036 ft | 505 kts | 108° |
| 2026-05-06 07:21 | 54.32734 | -5.78663 | 35045 ft | 504 kts | 108° |
| 2026-05-06 07:22 | 54.30664 | -5.67190 | 35044 ft | 504 kts | 108° |
| 2026-05-06 07:22 | 54.28599 | -5.55821 | 35045 ft | 503 kts | 108° |
| 2026-05-06 07:23 | 54.26509 | -5.44379 | 35041 ft | 503 kts | 108° |
| 2026-05-06 07:23 | 54.24409 | -5.32950 | 35050 ft | 503 kts | 108° |
| 2026-05-06 07:24 | 54.22298 | -5.21537 | 35048 ft | 503 kts | 108° |
| 2026-05-06 07:24 | 54.20189 | -5.10203 | 35050 ft | 503 kts | 108° |
| 2026-05-06 07:25 | 54.18058 | -4.98819 | 35053 ft | 503 kts | 109° |
| 2026-05-06 07:25 | 54.15916 | -4.87449 | 35050 ft | 503 kts | 109° |
| 2026-05-06 07:26 | 54.13764 | -4.76090 | 35033 ft | 503 kts | 109° |
| 2026-05-06 07:26 | 54.11601 | -4.64740 | 35070 ft | 503 kts | 109° |
| 2026-05-06 07:27 | 54.09426 | -4.53399 | 35075 ft | 503 kts | 109° |
| 2026-05-06 07:27 | 54.07254 | -4.42135 | 35082 ft | 503 kts | 109° |
| 2026-05-06 07:28 | 54.05057 | -4.30814 | 35064 ft | 503 kts | 109° |
| 2026-05-06 07:28 | 54.01742 | -4.13851 | 35056 ft | 503 kts | 110° |
| 2026-05-06 07:29 | 53.99519 | -4.02563 | 35052 ft | 503 kts | 110° |
| 2026-05-06 07:29 | 53.97286 | -3.91288 | 35053 ft | 503 kts | 110° |
| 2026-05-06 07:30 | 53.95053 | -3.80071 | 35068 ft | 503 kts | 110° |
| 2026-05-06 07:30 | 53.92800 | -3.68823 | 35063 ft | 503 kts | 110° |
| 2026-05-06 07:31 | 53.90537 | -3.57580 | 35068 ft | 503 kts | 110° |
| 2026-05-06 07:31 | 53.88254 | -3.46353 | 35066 ft | 503 kts | 111° |
| 2026-05-06 07:32 | 53.85839 | -3.35211 | 35071 ft | 503 kts | 112° |
| 2026-05-06 07:32 | 53.83371 | -3.24097 | 35074 ft | 503 kts | 112° |
| 2026-05-06 07:33 | 53.81325 | -3.14871 | 35075 ft | 503 kts | 112° |
| 2026-05-06 07:33 | 53.78470 | -3.01980 | 35077 ft | 503 kts | 112° |
| 2026-05-06 07:34 | 53.76422 | -2.92768 | 35075 ft | 503 kts | 112° |
| 2026-05-06 07:34 | 53.73947 | -2.81694 | 35075 ft | 503 kts | 112° |
| 2026-05-06 07:35 | 53.71462 | -2.70639 | 35063 ft | 503 kts | 112° |
| 2026-05-06 07:35 | 53.68967 | -2.59598 | 35047 ft | 503 kts | 112° |
| 2026-05-06 07:36 | 53.66476 | -2.48631 | 35056 ft | 502 kts | 112° |
| 2026-05-06 07:36 | 53.63971 | -2.37656 | 35055 ft | 501 kts | 112° |
| 2026-05-06 07:37 | 53.61462 | -2.26715 | 35059 ft | 500 kts | 112° |
| 2026-05-06 07:37 | 53.58937 | -2.15794 | 35056 ft | 499 kts | 113° |
| 2026-05-06 07:38 | 53.56398 | -2.04987 | 35058 ft | 499 kts | 113° |
| 2026-05-06 07:38 | 53.53840 | -1.94127 | 35059 ft | 499 kts | 113° |
| 2026-05-06 07:39 | 53.51553 | -1.83119 | 35070 ft | 499 kts | 107° |
| 2026-05-06 07:39 | 53.49664 | -1.71959 | 35060 ft | 499 kts | 107° |
| 2026-05-06 07:40 | 53.47715 | -1.60756 | 35054 ft | 499 kts | 108° |
| 2026-05-06 07:40 | 53.45715 | -1.49587 | 35057 ft | 499 kts | 108° |
| 2026-05-06 07:41 | 53.43697 | -1.38450 | 35047 ft | 499 kts | 108° |
| 2026-05-06 07:41 | 53.41687 | -1.27376 | 35045 ft | 499 kts | 108° |
| 2026-05-06 07:42 | 53.39717 | -1.16219 | 35041 ft | 499 kts | 108° |
| 2026-05-06 07:42 | 53.37678 | -1.05124 | 35047 ft | 498 kts | 109° |
| 2026-05-06 07:43 | 53.35615 | -0.94036 | 35041 ft | 498 kts | 109° |
| 2026-05-06 07:43 | 53.33565 | -0.83011 | 35030 ft | 498 kts | 109° |
| 2026-05-06 07:44 | 53.31499 | -0.71925 | 35026 ft | 498 kts | 109° |
| 2026-05-06 07:44 | 53.29422 | -0.60882 | 35022 ft | 498 kts | 109° |
| 2026-05-06 07:45 | 53.27333 | -0.49838 | 35022 ft | 498 kts | 109° |
| 2026-05-06 07:45 | 53.25238 | -0.38792 | 35023 ft | 498 kts | 109° |
| 2026-05-06 07:46 | 53.23162 | -0.27826 | 35014 ft | 497 kts | 109° |
| 2026-05-06 07:46 | 53.21046 | -0.16844 | 35021 ft | 497 kts | 109° |
| 2026-05-06 07:47 | 53.18921 | -0.05887 | 35021 ft | 496 kts | 109° |
| 2026-05-06 07:47 | 53.16790 | 0.05083 | 35001 ft | 496 kts | 109° |
| 2026-05-06 07:48 | 53.14674 | 0.15957 | 35004 ft | 495 kts | 109° |
| 2026-05-06 07:48 | 53.12541 | 0.26863 | 34989 ft | 495 kts | 109° |
| 2026-05-06 07:49 | 53.10400 | 0.37747 | 34994 ft | 494 kts | 109° |
| 2026-05-06 07:49 | 53.08250 | 0.48610 | 34990 ft | 494 kts | 109° |
| 2026-05-06 07:50 | 53.06092 | 0.59457 | 34989 ft | 494 kts | 110° |
| 2026-05-06 07:50 | 53.03921 | 0.70302 | 34991 ft | 494 kts | 110° |
| 2026-05-06 07:51 | 53.01751 | 0.81091 | 34986 ft | 495 kts | 110° |
| 2026-05-06 07:51 | 52.99556 | 0.91954 | 34979 ft | 496 kts | 110° |
| 2026-05-06 07:52 | 52.97507 | 1.02878 | 34981 ft | 497 kts | 103° |
| 2026-05-06 07:52 | 52.96204 | 1.14137 | 34979 ft | 497 kts | 101° |
| 2026-05-06 07:53 | 52.94946 | 1.25401 | 34978 ft | 496 kts | 101° |
| 2026-05-06 07:53 | 52.93649 | 1.36637 | 34978 ft | 496 kts | 102° |
| 2026-05-06 07:54 | 52.92319 | 1.47872 | 34965 ft | 496 kts | 102° |
| 2026-05-06 07:54 | 52.90978 | 1.59076 | 34974 ft | 495 kts | 102° |
| 2026-05-06 07:55 | 52.89632 | 1.70244 | 34956 ft | 494 kts | 102° |
| 2026-05-06 07:55 | 52.88949 | 1.75878 | 34201 ft | 505 kts | 102° |
| 2026-05-06 07:55 | 52.88263 | 1.81512 | 33467 ft | 502 kts | 102° |
| 2026-05-06 07:56 | 52.87570 | 1.87185 | 32468 ft | 503 kts | 103° |
| 2026-05-06 07:56 | 52.86877 | 1.92845 | 31560 ft | 502 kts | 103° |
| 2026-05-06 07:56 | 52.86179 | 1.98506 | 30661 ft | 501 kts | 103° |
| 2026-05-06 07:56 | 52.85483 | 2.04135 | 30042 ft | 495 kts | 104° |
| 2026-05-06 07:57 | 52.84796 | 2.09670 | 29395 ft | 488 kts | 104° |
| 2026-05-06 07:57 | 52.84109 | 2.15172 | 28933 ft | 486 kts | 104° |
| 2026-05-06 07:57 | 52.83424 | 2.20640 | 28683 ft | 481 kts | 104° |
| 2026-05-06 07:57 | 52.82745 | 2.26035 | 28343 ft | 477 kts | 104° |
| 2026-05-06 07:58 | 52.82073 | 2.31355 | 27431 ft | 476 kts | 104° |
| 2026-05-06 07:58 | 52.81397 | 2.36696 | 26817 ft | 470 kts | 104° |
| 2026-05-06 07:58 | 52.80729 | 2.41955 | 26203 ft | 465 kts | 104° |
| 2026-05-06 07:58 | 52.80065 | 2.47162 | 25637 ft | 460 kts | 104° |
| 2026-05-06 07:59 | 52.79404 | 2.52312 | 25071 ft | 456 kts | 104° |
| 2026-05-06 07:59 | 52.78745 | 2.57413 | 24528 ft | 451 kts | 104° |
| 2026-05-06 07:59 | 52.78090 | 2.62461 | 23990 ft | 447 kts | 104° |
| 2026-05-06 07:59 | 52.77439 | 2.67460 | 23443 ft | 444 kts | 104° |
| 2026-05-06 08:00 | 52.76789 | 2.72448 | 22807 ft | 441 kts | 104° |
| 2026-05-06 08:00 | 52.76155 | 2.77300 | 22268 ft | 436 kts | 104° |
| 2026-05-06 08:00 | 52.75517 | 2.82174 | 21734 ft | 432 kts | 104° |
| 2026-05-06 08:00 | 52.74897 | 2.87001 | 21208 ft | 428 kts | 103° |
| 2026-05-06 08:01 | 52.74284 | 2.91782 | 20692 ft | 424 kts | 103° |
| 2026-05-06 08:01 | 52.73671 | 2.96540 | 20182 ft | 421 kts | 103° |
| 2026-05-06 08:01 | 52.72868 | 3.01154 | 19667 ft | 417 kts | 116° |
| 2026-05-06 08:01 | 52.71474 | 3.05321 | 19155 ft | 414 kts | 122° |
| 2026-05-06 08:02 | 52.69954 | 3.09362 | 18665 ft | 413 kts | 122° |
| 2026-05-06 08:02 | 52.68451 | 3.13414 | 18140 ft | 414 kts | 122° |
| 2026-05-06 08:02 | 52.66975 | 3.17486 | 17574 ft | 414 kts | 121° |
| 2026-05-06 08:02 | 52.65531 | 3.21540 | 17032 ft | 414 kts | 121° |
| 2026-05-06 08:03 | 52.64087 | 3.25633 | 16506 ft | 413 kts | 121° |
| 2026-05-06 08:03 | 52.62646 | 3.29727 | 15983 ft | 411 kts | 120° |
| 2026-05-06 08:03 | 52.61213 | 3.33792 | 15456 ft | 409 kts | 121° |
| 2026-05-06 08:03 | 52.59785 | 3.37825 | 14951 ft | 406 kts | 121° |
| 2026-05-06 08:04 | 52.58464 | 3.41882 | 14417 ft | 397 kts | 112° |
| 2026-05-06 08:04 | 52.57856 | 3.46226 | 13949 ft | 386 kts | 97° |
| 2026-05-06 08:04 | 52.57485 | 3.50588 | 13455 ft | 384 kts | 98° |
| 2026-05-06 08:04 | 52.57069 | 3.54863 | 12945 ft | 383 kts | 99° |
| 2026-05-06 08:05 | 52.56624 | 3.59173 | 12453 ft | 381 kts | 99° |
| 2026-05-06 08:05 | 52.56168 | 3.63465 | 11969 ft | 379 kts | 99° |
| 2026-05-06 08:05 | 52.55710 | 3.67723 | 11493 ft | 378 kts | 99° |
| 2026-05-06 08:05 | 52.55254 | 3.71948 | 11248 ft | 369 kts | 99° |
| 2026-05-06 08:06 | 52.54818 | 3.75966 | 11095 ft | 344 kts | 99° |
| 2026-05-06 08:06 | 52.54413 | 3.79693 | 10898 ft | 320 kts | 99° |
| 2026-05-06 08:06 | 52.54033 | 3.83193 | 10576 ft | 304 kts | 99° |
| 2026-05-06 08:06 | 52.53667 | 3.86558 | 10151 ft | 297 kts | 99° |
| 2026-05-06 08:07 | 52.53303 | 3.89878 | 9962 ft | 293 kts | 99° |
| 2026-05-06 08:07 | 52.52942 | 3.93172 | 9912 ft | 291 kts | 99° |
| 2026-05-06 08:07 | 52.52406 | 3.96318 | 9892 ft | 285 kts | 118° |
| 2026-05-06 08:07 | 52.51178 | 3.98782 | 9632 ft | 283 kts | 139° |
| 2026-05-06 08:08 | 52.49666 | 4.00831 | 9327 ft | 282 kts | 140° |
| 2026-05-06 08:08 | 52.48160 | 4.02887 | 9025 ft | 281 kts | 139° |
| 2026-05-06 08:08 | 52.46671 | 4.04929 | 8736 ft | 276 kts | 139° |
| 2026-05-06 08:08 | 52.45210 | 4.06938 | 8430 ft | 272 kts | 139° |
| 2026-05-06 08:09 | 52.43762 | 4.08932 | 8172 ft | 271 kts | 139° |
| 2026-05-06 08:09 | 52.42313 | 4.10926 | 7911 ft | 272 kts | 139° |
| 2026-05-06 08:09 | 52.40857 | 4.12931 | 7620 ft | 275 kts | 138° |
| 2026-05-06 08:09 | 52.39399 | 4.14938 | 7336 ft | 272 kts | 139° |
| 2026-05-06 08:10 | 52.37967 | 4.16911 | 7065 ft | 266 kts | 138° |
| 2026-05-06 08:10 | 52.36557 | 4.18852 | 6792 ft | 264 kts | 137° |
| 2026-05-06 08:10 | 52.35150 | 4.20788 | 6527 ft | 264 kts | 137° |
| 2026-05-06 08:10 | 52.33742 | 4.22723 | 6261 ft | 262 kts | 137° |
| 2026-05-06 08:11 | 52.32362 | 4.24617 | 5969 ft | 256 kts | 137° |
| 2026-05-06 08:11 | 52.31035 | 4.26441 | 5704 ft | 249 kts | 137° |
| 2026-05-06 08:11 | 52.29730 | 4.28233 | 5450 ft | 238 kts | 136° |
| 2026-05-06 08:11 | 52.28500 | 4.29916 | 5244 ft | 226 kts | 136° |
| 2026-05-06 08:12 | 52.27292 | 4.31573 | 5010 ft | 227 kts | 136° |
| 2026-05-06 08:12 | 52.26088 | 4.33221 | 4763 ft | 225 kts | 136° |
| 2026-05-06 08:12 | 52.24894 | 4.34855 | 4524 ft | 223 kts | 135° |
| 2026-05-06 08:12 | 52.23753 | 4.36522 | 4275 ft | 214 kts | 123° |
| 2026-05-06 08:13 | 52.23090 | 4.38583 | 4074 ft | 200 kts | 108° |
| 2026-05-06 08:13 | 52.22524 | 4.40631 | 3880 ft | 195 kts | 110° |
| 2026-05-06 08:13 | 52.21957 | 4.42597 | 3660 ft | 188 kts | 110° |
| 2026-05-06 08:13 | 52.21406 | 4.44507 | 3483 ft | 184 kts | 110° |
| 2026-05-06 08:14 | 52.20912 | 4.46413 | 3453 ft | 182 kts | 98° |
| 2026-05-06 08:14 | 52.20843 | 4.48475 | 3267 ft | 182 kts | 86° |
| 2026-05-06 08:14 | 52.20824 | 4.50540 | 3126 ft | 181 kts | 88° |
| 2026-05-06 08:14 | 52.21031 | 4.52479 | 3003 ft | 169 kts | 63° |
| 2026-05-06 08:15 | 52.21528 | 4.54123 | 2812 ft | 155 kts | 63° |
| 2026-05-06 08:15 | 52.21997 | 4.55622 | 2570 ft | 142 kts | 59° |
| 2026-05-06 08:15 | 52.22482 | 4.56976 | 2391 ft | 139 kts | 58° |
| 2026-05-06 08:15 | 52.22992 | 4.58334 | 2201 ft | 142 kts | 57° |
| 2026-05-06 08:16 | 52.23512 | 4.59698 | 2027 ft | 141 kts | 56° |
| 2026-05-06 08:16 | 52.24027 | 4.61038 | 1816 ft | 138 kts | 56° |
| 2026-05-06 08:16 | 52.24537 | 4.62363 | 1643 ft | 137 kts | 57° |
| 2026-05-06 08:16 | 52.25044 | 4.63681 | 1451 ft | 137 kts | 57° |
| 2026-05-06 08:17 | 52.25552 | 4.65002 | 1271 ft | 137 kts | 57° |
| 2026-05-06 08:17 | 52.26064 | 4.66326 | 1074 ft | 138 kts | 56° |
| 2026-05-06 08:17 | 52.26581 | 4.67630 | 890 ft | 138 kts | 56° |
| 2026-05-06 08:17 | 52.27097 | 4.68966 | 678 ft | 141 kts | 56° |
| 2026-05-06 08:18 | 52.27594 | 4.70345 | 467 ft | 142 kts | 54° |
| 2026-05-06 08:18 | 52.28126 | 4.71670 | 324 ft | 139 kts | 54° |
| 2026-05-06 08:18 | 52.28650 | 4.73034 | 89 ft | 142 kts | 55° |
| 2026-05-06 08:18 | 52.29162 | 4.74344 | 7 ft | 128 kts | 56° |
| 2026-05-06 08:19 | 52.29542 | 4.75345 | 2 ft | 77 kts | 58° |
| 2026-05-06 08:19 | 52.29729 | 4.75835 | 0 ft | 32 kts | 59° |
| 2026-05-06 08:19 | 52.29838 | 4.76140 | -2 ft | 30 kts | 58° |
| 2026-05-06 08:19 | 52.29949 | 4.76428 | -1 ft | 30 kts | 57° |
| 2026-05-06 08:20 | 52.30063 | 4.76714 | 1 ft | 30 kts | 57° |
| 2026-05-06 08:20 | 52.30177 | 4.76999 | -1 ft | 30 kts | 56° |
| 2026-05-06 08:20 | 52.30253 | 4.77188 | -3 ft | 30 kts | 59° |
| 2026-05-06 08:20 | 52.30323 | 4.77387 | 0 ft | 12 kts | 70° |
| 2026-05-06 08:21 | 52.30310 | 4.77510 | 2 ft | 12 kts | 131° |
| 2026-05-06 08:21 | 52.30235 | 4.77539 | 1 ft | 12 kts | 191° |
| 2026-05-06 08:21 | 52.30157 | 4.77469 | -1 ft | 13 kts | 222° |
| 2026-05-06 08:21 | 52.30100 | 4.77349 | 1 ft | 13 kts | 237° |
| 2026-05-06 08:22 | 52.30050 | 4.77220 | 2 ft | 14 kts | 237° |
| 2026-05-06 08:22 | 52.29999 | 4.77089 | 4 ft | 14 kts | 237° |
| 2026-05-06 08:22 | 52.29946 | 4.76955 | 5 ft | 14 kts | 237° |
| 2026-05-06 08:22 | 52.29875 | 4.76834 | 2 ft | 17 kts | 220° |
| 2026-05-06 08:23 | 52.29803 | 4.76679 | 1 ft | 17 kts | 238° |
| 2026-05-06 08:23 | 52.29755 | 4.76554 | 1 ft | 8 kts | 238° |
| 2026-05-06 08:23 | 52.29705 | 4.76549 | 1 ft | 8 kts | 153° |
| 2026-05-06 08:23 | 52.29669 | 4.76588 | 1 ft | 3 kts | 146° |
| 2026-05-06 08:24 | 52.29659 | 4.76600 | 1 ft | 0 kts | 145° |